<?xml version="1.0" encoding="UTF-8" standalone="no" ?>
<gpx xmlns="http://www.topografix.com/GPX/1/1" xmlns:xsi="http://www.w3.org/2001/XMLSchema-instance" xsi:schemaLocation="http://www.topografix.com/GPX/1/1 http://www.topografix.com/GPX/1/1/gpx.xsd" version="1.1" creator="VisuGPX - https://www.visugpx.com">
  <metadata>
    <name>MILLAU J1 et 2</name>
  </metadata>
  <trk>
    <name><![CDATA[MILLAU J2 - Aguessac  Run1]]></name>
    <trkseg>
      <trkpt lat="44.12287" lon="3.11857">
        <ele>837.79998779297</ele>
        <time>2020-10-03T08:32:59.000Z</time>
      </trkpt>
      <trkpt lat="44.12289" lon="3.11857">
        <ele>834.20001220703</ele>
        <time>2020-10-03T08:33:00.000Z</time>
      </trkpt>
      <trkpt lat="44.12289" lon="3.11858">
        <ele>832.40002441406</ele>
        <time>2020-10-03T08:33:01.000Z</time>
      </trkpt>
      <trkpt lat="44.12289" lon="3.11857">
        <ele>831.20001220703</ele>
        <time>2020-10-03T08:33:02.000Z</time>
      </trkpt>
      <trkpt lat="44.12291" lon="3.11864">
        <ele>830.59997558594</ele>
        <time>2020-10-03T08:33:04.000Z</time>
      </trkpt>
      <trkpt lat="44.12293" lon="3.11862">
        <ele>830.40002441406</ele>
        <time>2020-10-03T08:33:05.000Z</time>
      </trkpt>
      <trkpt lat="44.12296" lon="3.1186">
        <ele>830.40002441406</ele>
        <time>2020-10-03T08:33:06.000Z</time>
      </trkpt>
      <trkpt lat="44.12309" lon="3.11849">
        <ele>830.40002441406</ele>
        <time>2020-10-03T08:33:12.000Z</time>
      </trkpt>
      <trkpt lat="44.1232" lon="3.11849">
        <ele>830.40002441406</ele>
        <time>2020-10-03T08:33:16.000Z</time>
      </trkpt>
      <trkpt lat="44.12337" lon="3.11865">
        <ele>830.40002441406</ele>
        <time>2020-10-03T08:33:21.000Z</time>
      </trkpt>
      <trkpt lat="44.12341" lon="3.11866">
        <ele>830.40002441406</ele>
        <time>2020-10-03T08:33:22.000Z</time>
      </trkpt>
      <trkpt lat="44.12349" lon="3.11866">
        <ele>830.20001220703</ele>
        <time>2020-10-03T08:33:25.000Z</time>
      </trkpt>
      <trkpt lat="44.12358" lon="3.11862">
        <ele>829.20001220703</ele>
        <time>2020-10-03T08:33:28.000Z</time>
      </trkpt>
      <trkpt lat="44.12365" lon="3.11865">
        <ele>828.79998779297</ele>
        <time>2020-10-03T08:33:30.000Z</time>
      </trkpt>
      <trkpt lat="44.12368" lon="3.11868">
        <ele>828.79998779297</ele>
        <time>2020-10-03T08:33:31.000Z</time>
      </trkpt>
      <trkpt lat="44.12379" lon="3.11882">
        <ele>828</ele>
        <time>2020-10-03T08:33:36.000Z</time>
      </trkpt>
      <trkpt lat="44.12381" lon="3.11882">
        <ele>827.79998779297</ele>
        <time>2020-10-03T08:33:37.000Z</time>
      </trkpt>
      <trkpt lat="44.1239" lon="3.11883">
        <ele>826.59997558594</ele>
        <time>2020-10-03T08:33:40.000Z</time>
      </trkpt>
      <trkpt lat="44.12397" lon="3.11882">
        <ele>825.40002441406</ele>
        <time>2020-10-03T08:33:42.000Z</time>
      </trkpt>
      <trkpt lat="44.12402" lon="3.11881">
        <ele>824.59997558594</ele>
        <time>2020-10-03T08:33:43.000Z</time>
      </trkpt>
      <trkpt lat="44.12406" lon="3.11879">
        <ele>824</ele>
        <time>2020-10-03T08:33:44.000Z</time>
      </trkpt>
      <trkpt lat="44.12417" lon="3.11875">
        <ele>822.79998779297</ele>
        <time>2020-10-03T08:33:46.000Z</time>
      </trkpt>
      <trkpt lat="44.12428" lon="3.11871">
        <ele>821.59997558594</ele>
        <time>2020-10-03T08:33:48.000Z</time>
      </trkpt>
      <trkpt lat="44.1244" lon="3.11868">
        <ele>820.40002441406</ele>
        <time>2020-10-03T08:33:50.000Z</time>
      </trkpt>
      <trkpt lat="44.12446" lon="3.11867">
        <ele>818.79998779297</ele>
        <time>2020-10-03T08:33:51.000Z</time>
      </trkpt>
      <trkpt lat="44.12461" lon="3.11865">
        <ele>817.20001220703</ele>
        <time>2020-10-03T08:33:53.000Z</time>
      </trkpt>
      <trkpt lat="44.12468" lon="3.11866">
        <ele>816.20001220703</ele>
        <time>2020-10-03T08:33:54.000Z</time>
      </trkpt>
      <trkpt lat="44.12482" lon="3.11869">
        <ele>814.20001220703</ele>
        <time>2020-10-03T08:33:56.000Z</time>
      </trkpt>
      <trkpt lat="44.12495" lon="3.11875">
        <ele>813</ele>
        <time>2020-10-03T08:33:58.000Z</time>
      </trkpt>
      <trkpt lat="44.12507" lon="3.11881">
        <ele>811.79998779297</ele>
        <time>2020-10-03T08:34:00.000Z</time>
      </trkpt>
      <trkpt lat="44.12512" lon="3.11884">
        <ele>811.20001220703</ele>
        <time>2020-10-03T08:34:01.000Z</time>
      </trkpt>
      <trkpt lat="44.12522" lon="3.1189">
        <ele>810.79998779297</ele>
        <time>2020-10-03T08:34:03.000Z</time>
      </trkpt>
      <trkpt lat="44.1256" lon="3.11915">
        <ele>810.79998779297</ele>
        <time>2020-10-03T08:34:12.000Z</time>
      </trkpt>
      <trkpt lat="44.12588" lon="3.11936">
        <ele>811.20001220703</ele>
        <time>2020-10-03T08:34:20.000Z</time>
      </trkpt>
      <trkpt lat="44.12614" lon="3.11949">
        <ele>811.79998779297</ele>
        <time>2020-10-03T08:34:28.000Z</time>
      </trkpt>
      <trkpt lat="44.12621" lon="3.11954">
        <ele>811.79998779297</ele>
        <time>2020-10-03T08:34:30.000Z</time>
      </trkpt>
      <trkpt lat="44.12627" lon="3.11959">
        <ele>812</ele>
        <time>2020-10-03T08:34:32.000Z</time>
      </trkpt>
      <trkpt lat="44.1263" lon="3.11961">
        <ele>812</ele>
        <time>2020-10-03T08:34:33.000Z</time>
      </trkpt>
      <trkpt lat="44.12632" lon="3.11964">
        <ele>812</ele>
        <time>2020-10-03T08:34:34.000Z</time>
      </trkpt>
      <trkpt lat="44.12639" lon="3.11968">
        <ele>812.20001220703</ele>
        <time>2020-10-03T08:34:36.000Z</time>
      </trkpt>
      <trkpt lat="44.12642" lon="3.11971">
        <ele>812.20001220703</ele>
        <time>2020-10-03T08:34:37.000Z</time>
      </trkpt>
      <trkpt lat="44.12645" lon="3.11973">
        <ele>812.20001220703</ele>
        <time>2020-10-03T08:34:38.000Z</time>
      </trkpt>
      <trkpt lat="44.12652" lon="3.11977">
        <ele>812.40002441406</ele>
        <time>2020-10-03T08:34:40.000Z</time>
      </trkpt>
      <trkpt lat="44.12659" lon="3.11981">
        <ele>812.40002441406</ele>
        <time>2020-10-03T08:34:42.000Z</time>
      </trkpt>
      <trkpt lat="44.12666" lon="3.11984">
        <ele>812.40002441406</ele>
        <time>2020-10-03T08:34:44.000Z</time>
      </trkpt>
      <trkpt lat="44.12674" lon="3.11988">
        <ele>812.40002441406</ele>
        <time>2020-10-03T08:34:46.000Z</time>
      </trkpt>
      <trkpt lat="44.12682" lon="3.11992">
        <ele>812.40002441406</ele>
        <time>2020-10-03T08:34:48.000Z</time>
      </trkpt>
      <trkpt lat="44.12689" lon="3.11995">
        <ele>812.40002441406</ele>
        <time>2020-10-03T08:34:50.000Z</time>
      </trkpt>
      <trkpt lat="44.12696" lon="3.11998">
        <ele>812.40002441406</ele>
        <time>2020-10-03T08:34:52.000Z</time>
      </trkpt>
      <trkpt lat="44.12699" lon="3.12">
        <ele>812.40002441406</ele>
        <time>2020-10-03T08:34:53.000Z</time>
      </trkpt>
      <trkpt lat="44.12702" lon="3.12001">
        <ele>812.40002441406</ele>
        <time>2020-10-03T08:34:54.000Z</time>
      </trkpt>
      <trkpt lat="44.12708" lon="3.12004">
        <ele>812.40002441406</ele>
        <time>2020-10-03T08:34:56.000Z</time>
      </trkpt>
      <trkpt lat="44.12715" lon="3.12006">
        <ele>812.59997558594</ele>
        <time>2020-10-03T08:34:58.000Z</time>
      </trkpt>
      <trkpt lat="44.12719" lon="3.12007">
        <ele>812.59997558594</ele>
        <time>2020-10-03T08:34:59.000Z</time>
      </trkpt>
      <trkpt lat="44.12723" lon="3.12007">
        <ele>812.79998779297</ele>
        <time>2020-10-03T08:35:00.000Z</time>
      </trkpt>
      <trkpt lat="44.12731" lon="3.12009">
        <ele>812.79998779297</ele>
        <time>2020-10-03T08:35:02.000Z</time>
      </trkpt>
      <trkpt lat="44.12738" lon="3.1201">
        <ele>812.79998779297</ele>
        <time>2020-10-03T08:35:04.000Z</time>
      </trkpt>
      <trkpt lat="44.12742" lon="3.12011">
        <ele>812.79998779297</ele>
        <time>2020-10-03T08:35:05.000Z</time>
      </trkpt>
      <trkpt lat="44.12746" lon="3.12013">
        <ele>812.79998779297</ele>
        <time>2020-10-03T08:35:06.000Z</time>
      </trkpt>
      <trkpt lat="44.12754" lon="3.12015">
        <ele>813</ele>
        <time>2020-10-03T08:35:08.000Z</time>
      </trkpt>
      <trkpt lat="44.12761" lon="3.12018">
        <ele>813</ele>
        <time>2020-10-03T08:35:10.000Z</time>
      </trkpt>
      <trkpt lat="44.12768" lon="3.12021">
        <ele>813.40002441406</ele>
        <time>2020-10-03T08:35:12.000Z</time>
      </trkpt>
      <trkpt lat="44.12775" lon="3.12025">
        <ele>813.59997558594</ele>
        <time>2020-10-03T08:35:14.000Z</time>
      </trkpt>
      <trkpt lat="44.12782" lon="3.12029">
        <ele>814.20001220703</ele>
        <time>2020-10-03T08:35:16.000Z</time>
      </trkpt>
      <trkpt lat="44.12789" lon="3.12033">
        <ele>814.59997558594</ele>
        <time>2020-10-03T08:35:18.000Z</time>
      </trkpt>
      <trkpt lat="44.12795" lon="3.12036">
        <ele>814.79998779297</ele>
        <time>2020-10-03T08:35:20.000Z</time>
      </trkpt>
      <trkpt lat="44.12801" lon="3.1204">
        <ele>815</ele>
        <time>2020-10-03T08:35:22.000Z</time>
      </trkpt>
      <trkpt lat="44.12806" lon="3.12044">
        <ele>815</ele>
        <time>2020-10-03T08:35:24.000Z</time>
      </trkpt>
      <trkpt lat="44.12811" lon="3.12048">
        <ele>815.20001220703</ele>
        <time>2020-10-03T08:35:26.000Z</time>
      </trkpt>
      <trkpt lat="44.12817" lon="3.12053">
        <ele>815.40002441406</ele>
        <time>2020-10-03T08:35:28.000Z</time>
      </trkpt>
      <trkpt lat="44.12825" lon="3.1206">
        <ele>815.59997558594</ele>
        <time>2020-10-03T08:35:30.000Z</time>
      </trkpt>
      <trkpt lat="44.12832" lon="3.12067">
        <ele>815.59997558594</ele>
        <time>2020-10-03T08:35:32.000Z</time>
      </trkpt>
      <trkpt lat="44.1284" lon="3.12073">
        <ele>815.79998779297</ele>
        <time>2020-10-03T08:35:34.000Z</time>
      </trkpt>
      <trkpt lat="44.12848" lon="3.12079">
        <ele>815.79998779297</ele>
        <time>2020-10-03T08:35:36.000Z</time>
      </trkpt>
      <trkpt lat="44.12855" lon="3.12085">
        <ele>815.79998779297</ele>
        <time>2020-10-03T08:35:38.000Z</time>
      </trkpt>
      <trkpt lat="44.12864" lon="3.12092">
        <ele>816</ele>
        <time>2020-10-03T08:35:40.000Z</time>
      </trkpt>
      <trkpt lat="44.12872" lon="3.12099">
        <ele>816</ele>
        <time>2020-10-03T08:35:42.000Z</time>
      </trkpt>
      <trkpt lat="44.12881" lon="3.12105">
        <ele>816</ele>
        <time>2020-10-03T08:35:44.000Z</time>
      </trkpt>
      <trkpt lat="44.12889" lon="3.12111">
        <ele>816</ele>
        <time>2020-10-03T08:35:46.000Z</time>
      </trkpt>
      <trkpt lat="44.12897" lon="3.12117">
        <ele>815.79998779297</ele>
        <time>2020-10-03T08:35:48.000Z</time>
      </trkpt>
      <trkpt lat="44.12905" lon="3.12123">
        <ele>815.79998779297</ele>
        <time>2020-10-03T08:35:50.000Z</time>
      </trkpt>
      <trkpt lat="44.12912" lon="3.12129">
        <ele>815.79998779297</ele>
        <time>2020-10-03T08:35:52.000Z</time>
      </trkpt>
      <trkpt lat="44.1292" lon="3.12136">
        <ele>816</ele>
        <time>2020-10-03T08:35:54.000Z</time>
      </trkpt>
      <trkpt lat="44.12923" lon="3.12139">
        <ele>816</ele>
        <time>2020-10-03T08:35:55.000Z</time>
      </trkpt>
      <trkpt lat="44.12927" lon="3.12142">
        <ele>816.20001220703</ele>
        <time>2020-10-03T08:35:56.000Z</time>
      </trkpt>
      <trkpt lat="44.12936" lon="3.12148">
        <ele>816</ele>
        <time>2020-10-03T08:35:58.000Z</time>
      </trkpt>
      <trkpt lat="44.12945" lon="3.12153">
        <ele>816.40002441406</ele>
        <time>2020-10-03T08:36:00.000Z</time>
      </trkpt>
      <trkpt lat="44.12953" lon="3.12157">
        <ele>816.40002441406</ele>
        <time>2020-10-03T08:36:02.000Z</time>
      </trkpt>
      <trkpt lat="44.12961" lon="3.12162">
        <ele>816.59997558594</ele>
        <time>2020-10-03T08:36:04.000Z</time>
      </trkpt>
      <trkpt lat="44.12968" lon="3.12168">
        <ele>816.59997558594</ele>
        <time>2020-10-03T08:36:06.000Z</time>
      </trkpt>
      <trkpt lat="44.12975" lon="3.12173">
        <ele>816.59997558594</ele>
        <time>2020-10-03T08:36:08.000Z</time>
      </trkpt>
      <trkpt lat="44.12979" lon="3.12176">
        <ele>816.79998779297</ele>
        <time>2020-10-03T08:36:09.000Z</time>
      </trkpt>
      <trkpt lat="44.12982" lon="3.1218">
        <ele>816.79998779297</ele>
        <time>2020-10-03T08:36:10.000Z</time>
      </trkpt>
      <trkpt lat="44.12988" lon="3.12187">
        <ele>817</ele>
        <time>2020-10-03T08:36:12.000Z</time>
      </trkpt>
      <trkpt lat="44.12992" lon="3.1219">
        <ele>817.20001220703</ele>
        <time>2020-10-03T08:36:13.000Z</time>
      </trkpt>
      <trkpt lat="44.12995" lon="3.12194">
        <ele>817.20001220703</ele>
        <time>2020-10-03T08:36:14.000Z</time>
      </trkpt>
      <trkpt lat="44.13002" lon="3.12202">
        <ele>817.40002441406</ele>
        <time>2020-10-03T08:36:16.000Z</time>
      </trkpt>
      <trkpt lat="44.1301" lon="3.1221">
        <ele>817.40002441406</ele>
        <time>2020-10-03T08:36:18.000Z</time>
      </trkpt>
      <trkpt lat="44.13017" lon="3.12218">
        <ele>817.59997558594</ele>
        <time>2020-10-03T08:36:20.000Z</time>
      </trkpt>
      <trkpt lat="44.13023" lon="3.12226">
        <ele>817.79998779297</ele>
        <time>2020-10-03T08:36:22.000Z</time>
      </trkpt>
      <trkpt lat="44.13028" lon="3.12234">
        <ele>818</ele>
        <time>2020-10-03T08:36:24.000Z</time>
      </trkpt>
      <trkpt lat="44.13033" lon="3.12242">
        <ele>818.20001220703</ele>
        <time>2020-10-03T08:36:26.000Z</time>
      </trkpt>
      <trkpt lat="44.13038" lon="3.12249">
        <ele>818.20001220703</ele>
        <time>2020-10-03T08:36:28.000Z</time>
      </trkpt>
      <trkpt lat="44.13044" lon="3.12255">
        <ele>818.59997558594</ele>
        <time>2020-10-03T08:36:30.000Z</time>
      </trkpt>
      <trkpt lat="44.1305" lon="3.1226">
        <ele>819.20001220703</ele>
        <time>2020-10-03T08:36:32.000Z</time>
      </trkpt>
      <trkpt lat="44.13057" lon="3.12263">
        <ele>819.40002441406</ele>
        <time>2020-10-03T08:36:34.000Z</time>
      </trkpt>
      <trkpt lat="44.13064" lon="3.12265">
        <ele>819.59997558594</ele>
        <time>2020-10-03T08:36:36.000Z</time>
      </trkpt>
      <trkpt lat="44.13071" lon="3.12266">
        <ele>820</ele>
        <time>2020-10-03T08:36:38.000Z</time>
      </trkpt>
      <trkpt lat="44.13075" lon="3.12267">
        <ele>820.20001220703</ele>
        <time>2020-10-03T08:36:39.000Z</time>
      </trkpt>
      <trkpt lat="44.13079" lon="3.12268">
        <ele>820.20001220703</ele>
        <time>2020-10-03T08:36:40.000Z</time>
      </trkpt>
      <trkpt lat="44.13087" lon="3.1227">
        <ele>820.79998779297</ele>
        <time>2020-10-03T08:36:42.000Z</time>
      </trkpt>
      <trkpt lat="44.1309" lon="3.1227">
        <ele>821.20001220703</ele>
        <time>2020-10-03T08:36:43.000Z</time>
      </trkpt>
      <trkpt lat="44.13094" lon="3.12271">
        <ele>821.40002441406</ele>
        <time>2020-10-03T08:36:44.000Z</time>
      </trkpt>
      <trkpt lat="44.13101" lon="3.12274">
        <ele>821.59997558594</ele>
        <time>2020-10-03T08:36:46.000Z</time>
      </trkpt>
      <trkpt lat="44.13104" lon="3.12275">
        <ele>821.79998779297</ele>
        <time>2020-10-03T08:36:47.000Z</time>
      </trkpt>
      <trkpt lat="44.13107" lon="3.12276">
        <ele>821.79998779297</ele>
        <time>2020-10-03T08:36:48.000Z</time>
      </trkpt>
      <trkpt lat="44.13112" lon="3.12279">
        <ele>822.20001220703</ele>
        <time>2020-10-03T08:36:50.000Z</time>
      </trkpt>
      <trkpt lat="44.13115" lon="3.1228">
        <ele>822.40002441406</ele>
        <time>2020-10-03T08:36:51.000Z</time>
      </trkpt>
      <trkpt lat="44.13118" lon="3.12281">
        <ele>822.59997558594</ele>
        <time>2020-10-03T08:36:52.000Z</time>
      </trkpt>
      <trkpt lat="44.13124" lon="3.12284">
        <ele>823</ele>
        <time>2020-10-03T08:36:54.000Z</time>
      </trkpt>
      <trkpt lat="44.13129" lon="3.12287">
        <ele>823.40002441406</ele>
        <time>2020-10-03T08:36:56.000Z</time>
      </trkpt>
      <trkpt lat="44.13132" lon="3.12289">
        <ele>823.59997558594</ele>
        <time>2020-10-03T08:36:57.000Z</time>
      </trkpt>
      <trkpt lat="44.13135" lon="3.12291">
        <ele>823.79998779297</ele>
        <time>2020-10-03T08:36:58.000Z</time>
      </trkpt>
      <trkpt lat="44.13139" lon="3.12296">
        <ele>824.20001220703</ele>
        <time>2020-10-03T08:37:00.000Z</time>
      </trkpt>
      <trkpt lat="44.13144" lon="3.12301">
        <ele>824.59997558594</ele>
        <time>2020-10-03T08:37:02.000Z</time>
      </trkpt>
      <trkpt lat="44.13149" lon="3.12306">
        <ele>825</ele>
        <time>2020-10-03T08:37:04.000Z</time>
      </trkpt>
      <trkpt lat="44.13154" lon="3.12311">
        <ele>825.59997558594</ele>
        <time>2020-10-03T08:37:06.000Z</time>
      </trkpt>
      <trkpt lat="44.1316" lon="3.12315">
        <ele>826</ele>
        <time>2020-10-03T08:37:08.000Z</time>
      </trkpt>
      <trkpt lat="44.13166" lon="3.12319">
        <ele>826.59997558594</ele>
        <time>2020-10-03T08:37:10.000Z</time>
      </trkpt>
      <trkpt lat="44.13172" lon="3.12322">
        <ele>827.40002441406</ele>
        <time>2020-10-03T08:37:12.000Z</time>
      </trkpt>
      <trkpt lat="44.13178" lon="3.12325">
        <ele>827.79998779297</ele>
        <time>2020-10-03T08:37:14.000Z</time>
      </trkpt>
      <trkpt lat="44.13184" lon="3.12329">
        <ele>828.20001220703</ele>
        <time>2020-10-03T08:37:16.000Z</time>
      </trkpt>
      <trkpt lat="44.1319" lon="3.12332">
        <ele>828.40002441406</ele>
        <time>2020-10-03T08:37:18.000Z</time>
      </trkpt>
      <trkpt lat="44.13197" lon="3.12337">
        <ele>828.59997558594</ele>
        <time>2020-10-03T08:37:20.000Z</time>
      </trkpt>
      <trkpt lat="44.13204" lon="3.12341">
        <ele>828.79998779297</ele>
        <time>2020-10-03T08:37:22.000Z</time>
      </trkpt>
      <trkpt lat="44.13208" lon="3.12343">
        <ele>828.79998779297</ele>
        <time>2020-10-03T08:37:23.000Z</time>
      </trkpt>
      <trkpt lat="44.13212" lon="3.12345">
        <ele>828.79998779297</ele>
        <time>2020-10-03T08:37:24.000Z</time>
      </trkpt>
      <trkpt lat="44.13219" lon="3.12351">
        <ele>829</ele>
        <time>2020-10-03T08:37:26.000Z</time>
      </trkpt>
      <trkpt lat="44.13223" lon="3.12353">
        <ele>829</ele>
        <time>2020-10-03T08:37:27.000Z</time>
      </trkpt>
      <trkpt lat="44.13227" lon="3.12355">
        <ele>829</ele>
        <time>2020-10-03T08:37:28.000Z</time>
      </trkpt>
      <trkpt lat="44.13235" lon="3.12359">
        <ele>829.20001220703</ele>
        <time>2020-10-03T08:37:30.000Z</time>
      </trkpt>
      <trkpt lat="44.13244" lon="3.12364">
        <ele>829.20001220703</ele>
        <time>2020-10-03T08:37:32.000Z</time>
      </trkpt>
      <trkpt lat="44.13252" lon="3.12368">
        <ele>829.20001220703</ele>
        <time>2020-10-03T08:37:34.000Z</time>
      </trkpt>
      <trkpt lat="44.13257" lon="3.1237">
        <ele>829.20001220703</ele>
        <time>2020-10-03T08:37:35.000Z</time>
      </trkpt>
      <trkpt lat="44.13261" lon="3.12371">
        <ele>829.40002441406</ele>
        <time>2020-10-03T08:37:36.000Z</time>
      </trkpt>
      <trkpt lat="44.1327" lon="3.12373">
        <ele>829.40002441406</ele>
        <time>2020-10-03T08:37:38.000Z</time>
      </trkpt>
      <trkpt lat="44.1328" lon="3.12374">
        <ele>829.59997558594</ele>
        <time>2020-10-03T08:37:40.000Z</time>
      </trkpt>
      <trkpt lat="44.1329" lon="3.12374">
        <ele>829.59997558594</ele>
        <time>2020-10-03T08:37:42.000Z</time>
      </trkpt>
      <trkpt lat="44.13301" lon="3.12374">
        <ele>829.59997558594</ele>
        <time>2020-10-03T08:37:44.000Z</time>
      </trkpt>
      <trkpt lat="44.13312" lon="3.12374">
        <ele>829.40002441406</ele>
        <time>2020-10-03T08:37:46.000Z</time>
      </trkpt>
      <trkpt lat="44.13323" lon="3.12374">
        <ele>829.40002441406</ele>
        <time>2020-10-03T08:37:48.000Z</time>
      </trkpt>
      <trkpt lat="44.13332" lon="3.12373">
        <ele>829.40002441406</ele>
        <time>2020-10-03T08:37:50.000Z</time>
      </trkpt>
      <trkpt lat="44.13341" lon="3.12374">
        <ele>829.40002441406</ele>
        <time>2020-10-03T08:37:52.000Z</time>
      </trkpt>
      <trkpt lat="44.1335" lon="3.12374">
        <ele>829.40002441406</ele>
        <time>2020-10-03T08:37:54.000Z</time>
      </trkpt>
      <trkpt lat="44.13359" lon="3.12373">
        <ele>829.40002441406</ele>
        <time>2020-10-03T08:37:56.000Z</time>
      </trkpt>
      <trkpt lat="44.13368" lon="3.1237">
        <ele>829.40002441406</ele>
        <time>2020-10-03T08:37:58.000Z</time>
      </trkpt>
      <trkpt lat="44.13378" lon="3.12367">
        <ele>829.79998779297</ele>
        <time>2020-10-03T08:38:00.000Z</time>
      </trkpt>
      <trkpt lat="44.13382" lon="3.12365">
        <ele>829.79998779297</ele>
        <time>2020-10-03T08:38:01.000Z</time>
      </trkpt>
      <trkpt lat="44.13387" lon="3.12364">
        <ele>830</ele>
        <time>2020-10-03T08:38:02.000Z</time>
      </trkpt>
      <trkpt lat="44.13397" lon="3.12361">
        <ele>830.20001220703</ele>
        <time>2020-10-03T08:38:04.000Z</time>
      </trkpt>
      <trkpt lat="44.13408" lon="3.1236">
        <ele>830.20001220703</ele>
        <time>2020-10-03T08:38:06.000Z</time>
      </trkpt>
      <trkpt lat="44.13418" lon="3.1236">
        <ele>830.40002441406</ele>
        <time>2020-10-03T08:38:08.000Z</time>
      </trkpt>
      <trkpt lat="44.13423" lon="3.12361">
        <ele>830.40002441406</ele>
        <time>2020-10-03T08:38:09.000Z</time>
      </trkpt>
      <trkpt lat="44.13428" lon="3.12363">
        <ele>830.40002441406</ele>
        <time>2020-10-03T08:38:10.000Z</time>
      </trkpt>
      <trkpt lat="44.13433" lon="3.12366">
        <ele>830.40002441406</ele>
        <time>2020-10-03T08:38:11.000Z</time>
      </trkpt>
      <trkpt lat="44.13437" lon="3.12369">
        <ele>830.40002441406</ele>
        <time>2020-10-03T08:38:12.000Z</time>
      </trkpt>
      <trkpt lat="44.13446" lon="3.12378">
        <ele>830.40002441406</ele>
        <time>2020-10-03T08:38:14.000Z</time>
      </trkpt>
      <trkpt lat="44.13452" lon="3.12388">
        <ele>830.20001220703</ele>
        <time>2020-10-03T08:38:16.000Z</time>
      </trkpt>
      <trkpt lat="44.13456" lon="3.12399">
        <ele>830.20001220703</ele>
        <time>2020-10-03T08:38:18.000Z</time>
      </trkpt>
      <trkpt lat="44.13458" lon="3.1241">
        <ele>830.20001220703</ele>
        <time>2020-10-03T08:38:20.000Z</time>
      </trkpt>
      <trkpt lat="44.13458" lon="3.12416">
        <ele>830.20001220703</ele>
        <time>2020-10-03T08:38:21.000Z</time>
      </trkpt>
      <trkpt lat="44.13458" lon="3.12422">
        <ele>830.20001220703</ele>
        <time>2020-10-03T08:38:22.000Z</time>
      </trkpt>
      <trkpt lat="44.13458" lon="3.12428">
        <ele>830.20001220703</ele>
        <time>2020-10-03T08:38:23.000Z</time>
      </trkpt>
      <trkpt lat="44.13458" lon="3.12434">
        <ele>830.20001220703</ele>
        <time>2020-10-03T08:38:24.000Z</time>
      </trkpt>
      <trkpt lat="44.13457" lon="3.12444">
        <ele>830.79998779297</ele>
        <time>2020-10-03T08:38:26.000Z</time>
      </trkpt>
      <trkpt lat="44.13456" lon="3.12448">
        <ele>831</ele>
        <time>2020-10-03T08:38:27.000Z</time>
      </trkpt>
      <trkpt lat="44.13456" lon="3.12453">
        <ele>831.40002441406</ele>
        <time>2020-10-03T08:38:28.000Z</time>
      </trkpt>
      <trkpt lat="44.13455" lon="3.12457">
        <ele>831.79998779297</ele>
        <time>2020-10-03T08:38:29.000Z</time>
      </trkpt>
      <trkpt lat="44.13455" lon="3.12462">
        <ele>832</ele>
        <time>2020-10-03T08:38:30.000Z</time>
      </trkpt>
      <trkpt lat="44.13453" lon="3.1247">
        <ele>832.20001220703</ele>
        <time>2020-10-03T08:38:32.000Z</time>
      </trkpt>
      <trkpt lat="44.13451" lon="3.12478">
        <ele>832.40002441406</ele>
        <time>2020-10-03T08:38:34.000Z</time>
      </trkpt>
      <trkpt lat="44.13449" lon="3.12487">
        <ele>832.59997558594</ele>
        <time>2020-10-03T08:38:36.000Z</time>
      </trkpt>
      <trkpt lat="44.13448" lon="3.12495">
        <ele>832.79998779297</ele>
        <time>2020-10-03T08:38:38.000Z</time>
      </trkpt>
      <trkpt lat="44.13447" lon="3.12503">
        <ele>833.40002441406</ele>
        <time>2020-10-03T08:38:40.000Z</time>
      </trkpt>
      <trkpt lat="44.13447" lon="3.12511">
        <ele>834</ele>
        <time>2020-10-03T08:38:42.000Z</time>
      </trkpt>
      <trkpt lat="44.13446" lon="3.12518">
        <ele>834.40002441406</ele>
        <time>2020-10-03T08:38:44.000Z</time>
      </trkpt>
      <trkpt lat="44.13447" lon="3.12526">
        <ele>834.59997558594</ele>
        <time>2020-10-03T08:38:46.000Z</time>
      </trkpt>
      <trkpt lat="44.13447" lon="3.12534">
        <ele>834.59997558594</ele>
        <time>2020-10-03T08:38:48.000Z</time>
      </trkpt>
      <trkpt lat="44.13447" lon="3.12538">
        <ele>835</ele>
        <time>2020-10-03T08:38:49.000Z</time>
      </trkpt>
      <trkpt lat="44.13448" lon="3.12542">
        <ele>835.20001220703</ele>
        <time>2020-10-03T08:38:50.000Z</time>
      </trkpt>
      <trkpt lat="44.13449" lon="3.1255">
        <ele>835.59997558594</ele>
        <time>2020-10-03T08:38:52.000Z</time>
      </trkpt>
      <trkpt lat="44.13449" lon="3.12553">
        <ele>835.79998779297</ele>
        <time>2020-10-03T08:38:53.000Z</time>
      </trkpt>
      <trkpt lat="44.1345" lon="3.12557">
        <ele>836</ele>
        <time>2020-10-03T08:38:54.000Z</time>
      </trkpt>
      <trkpt lat="44.13451" lon="3.12565">
        <ele>836.40002441406</ele>
        <time>2020-10-03T08:38:56.000Z</time>
      </trkpt>
      <trkpt lat="44.13453" lon="3.12573">
        <ele>836.59997558594</ele>
        <time>2020-10-03T08:38:58.000Z</time>
      </trkpt>
      <trkpt lat="44.13455" lon="3.1258">
        <ele>836.79998779297</ele>
        <time>2020-10-03T08:39:00.000Z</time>
      </trkpt>
      <trkpt lat="44.13456" lon="3.12584">
        <ele>837</ele>
        <time>2020-10-03T08:39:01.000Z</time>
      </trkpt>
      <trkpt lat="44.13457" lon="3.12588">
        <ele>837.40002441406</ele>
        <time>2020-10-03T08:39:02.000Z</time>
      </trkpt>
      <trkpt lat="44.13458" lon="3.12592">
        <ele>837.40002441406</ele>
        <time>2020-10-03T08:39:03.000Z</time>
      </trkpt>
      <trkpt lat="44.1346" lon="3.12596">
        <ele>837.59997558594</ele>
        <time>2020-10-03T08:39:04.000Z</time>
      </trkpt>
      <trkpt lat="44.13462" lon="3.12604">
        <ele>838</ele>
        <time>2020-10-03T08:39:06.000Z</time>
      </trkpt>
      <trkpt lat="44.13464" lon="3.12607">
        <ele>838.20001220703</ele>
        <time>2020-10-03T08:39:07.000Z</time>
      </trkpt>
      <trkpt lat="44.13466" lon="3.12611">
        <ele>838.40002441406</ele>
        <time>2020-10-03T08:39:08.000Z</time>
      </trkpt>
      <trkpt lat="44.1347" lon="3.12618">
        <ele>838.59997558594</ele>
        <time>2020-10-03T08:39:10.000Z</time>
      </trkpt>
      <trkpt lat="44.13475" lon="3.12624">
        <ele>839.40002441406</ele>
        <time>2020-10-03T08:39:12.000Z</time>
      </trkpt>
      <trkpt lat="44.1348" lon="3.1263">
        <ele>839.79998779297</ele>
        <time>2020-10-03T08:39:14.000Z</time>
      </trkpt>
      <trkpt lat="44.13486" lon="3.12634">
        <ele>840.20001220703</ele>
        <time>2020-10-03T08:39:16.000Z</time>
      </trkpt>
      <trkpt lat="44.13491" lon="3.12639">
        <ele>840.40002441406</ele>
        <time>2020-10-03T08:39:18.000Z</time>
      </trkpt>
      <trkpt lat="44.13493" lon="3.12641">
        <ele>840.59997558594</ele>
        <time>2020-10-03T08:39:19.000Z</time>
      </trkpt>
      <trkpt lat="44.13495" lon="3.12643">
        <ele>840.59997558594</ele>
        <time>2020-10-03T08:39:20.000Z</time>
      </trkpt>
      <trkpt lat="44.135" lon="3.12648">
        <ele>841</ele>
        <time>2020-10-03T08:39:22.000Z</time>
      </trkpt>
      <trkpt lat="44.13506" lon="3.12653">
        <ele>841.40002441406</ele>
        <time>2020-10-03T08:39:24.000Z</time>
      </trkpt>
      <trkpt lat="44.13508" lon="3.12656">
        <ele>841.59997558594</ele>
        <time>2020-10-03T08:39:25.000Z</time>
      </trkpt>
      <trkpt lat="44.13511" lon="3.12659">
        <ele>841.79998779297</ele>
        <time>2020-10-03T08:39:26.000Z</time>
      </trkpt>
      <trkpt lat="44.13516" lon="3.12666">
        <ele>842.20001220703</ele>
        <time>2020-10-03T08:39:28.000Z</time>
      </trkpt>
      <trkpt lat="44.13521" lon="3.12673">
        <ele>842.59997558594</ele>
        <time>2020-10-03T08:39:30.000Z</time>
      </trkpt>
      <trkpt lat="44.13523" lon="3.12677">
        <ele>842.79998779297</ele>
        <time>2020-10-03T08:39:31.000Z</time>
      </trkpt>
      <trkpt lat="44.13526" lon="3.1268">
        <ele>843</ele>
        <time>2020-10-03T08:39:32.000Z</time>
      </trkpt>
      <trkpt lat="44.13531" lon="3.12688">
        <ele>843</ele>
        <time>2020-10-03T08:39:34.000Z</time>
      </trkpt>
      <trkpt lat="44.13536" lon="3.12695">
        <ele>843.20001220703</ele>
        <time>2020-10-03T08:39:36.000Z</time>
      </trkpt>
      <trkpt lat="44.13541" lon="3.12702">
        <ele>843.40002441406</ele>
        <time>2020-10-03T08:39:38.000Z</time>
      </trkpt>
      <trkpt lat="44.13547" lon="3.12709">
        <ele>843.79998779297</ele>
        <time>2020-10-03T08:39:40.000Z</time>
      </trkpt>
      <trkpt lat="44.13552" lon="3.12716">
        <ele>844</ele>
        <time>2020-10-03T08:39:42.000Z</time>
      </trkpt>
      <trkpt lat="44.13558" lon="3.12722">
        <ele>844.20001220703</ele>
        <time>2020-10-03T08:39:44.000Z</time>
      </trkpt>
      <trkpt lat="44.13563" lon="3.12727">
        <ele>844.20001220703</ele>
        <time>2020-10-03T08:39:46.000Z</time>
      </trkpt>
      <trkpt lat="44.13565" lon="3.12729">
        <ele>844.20001220703</ele>
        <time>2020-10-03T08:39:47.000Z</time>
      </trkpt>
      <trkpt lat="44.13568" lon="3.12731">
        <ele>844.20001220703</ele>
        <time>2020-10-03T08:39:48.000Z</time>
      </trkpt>
      <trkpt lat="44.13573" lon="3.12735">
        <ele>844.20001220703</ele>
        <time>2020-10-03T08:39:50.000Z</time>
      </trkpt>
      <trkpt lat="44.13578" lon="3.12739">
        <ele>844.20001220703</ele>
        <time>2020-10-03T08:39:52.000Z</time>
      </trkpt>
      <trkpt lat="44.13584" lon="3.12743">
        <ele>844.20001220703</ele>
        <time>2020-10-03T08:39:54.000Z</time>
      </trkpt>
      <trkpt lat="44.1359" lon="3.12747">
        <ele>844</ele>
        <time>2020-10-03T08:39:56.000Z</time>
      </trkpt>
      <trkpt lat="44.13596" lon="3.1275">
        <ele>844</ele>
        <time>2020-10-03T08:39:58.000Z</time>
      </trkpt>
      <trkpt lat="44.13602" lon="3.12754">
        <ele>843.79998779297</ele>
        <time>2020-10-03T08:40:00.000Z</time>
      </trkpt>
      <trkpt lat="44.1361" lon="3.12757">
        <ele>843.40002441406</ele>
        <time>2020-10-03T08:40:02.000Z</time>
      </trkpt>
      <trkpt lat="44.13618" lon="3.1276">
        <ele>843.20001220703</ele>
        <time>2020-10-03T08:40:04.000Z</time>
      </trkpt>
      <trkpt lat="44.13623" lon="3.12761">
        <ele>843.20001220703</ele>
        <time>2020-10-03T08:40:05.000Z</time>
      </trkpt>
      <trkpt lat="44.13628" lon="3.12762">
        <ele>843.20001220703</ele>
        <time>2020-10-03T08:40:06.000Z</time>
      </trkpt>
      <trkpt lat="44.1364" lon="3.12764">
        <ele>842.59997558594</ele>
        <time>2020-10-03T08:40:08.000Z</time>
      </trkpt>
      <trkpt lat="44.13653" lon="3.12766">
        <ele>842.40002441406</ele>
        <time>2020-10-03T08:40:10.000Z</time>
      </trkpt>
      <trkpt lat="44.13659" lon="3.12767">
        <ele>842.20001220703</ele>
        <time>2020-10-03T08:40:11.000Z</time>
      </trkpt>
      <trkpt lat="44.13666" lon="3.12768">
        <ele>842</ele>
        <time>2020-10-03T08:40:12.000Z</time>
      </trkpt>
      <trkpt lat="44.13673" lon="3.12769">
        <ele>841.40002441406</ele>
        <time>2020-10-03T08:40:13.000Z</time>
      </trkpt>
      <trkpt lat="44.1368" lon="3.1277">
        <ele>841</ele>
        <time>2020-10-03T08:40:14.000Z</time>
      </trkpt>
      <trkpt lat="44.13692" lon="3.12772">
        <ele>840.40002441406</ele>
        <time>2020-10-03T08:40:16.000Z</time>
      </trkpt>
      <trkpt lat="44.13698" lon="3.12773">
        <ele>840</ele>
        <time>2020-10-03T08:40:17.000Z</time>
      </trkpt>
      <trkpt lat="44.13703" lon="3.12773">
        <ele>839.59997558594</ele>
        <time>2020-10-03T08:40:18.000Z</time>
      </trkpt>
      <trkpt lat="44.13714" lon="3.12775">
        <ele>839</ele>
        <time>2020-10-03T08:40:20.000Z</time>
      </trkpt>
      <trkpt lat="44.13725" lon="3.12776">
        <ele>838.20001220703</ele>
        <time>2020-10-03T08:40:22.000Z</time>
      </trkpt>
      <trkpt lat="44.1373" lon="3.12777">
        <ele>838</ele>
        <time>2020-10-03T08:40:23.000Z</time>
      </trkpt>
      <trkpt lat="44.13736" lon="3.12778">
        <ele>837.59997558594</ele>
        <time>2020-10-03T08:40:24.000Z</time>
      </trkpt>
      <trkpt lat="44.13748" lon="3.12781">
        <ele>837.20001220703</ele>
        <time>2020-10-03T08:40:26.000Z</time>
      </trkpt>
      <trkpt lat="44.13753" lon="3.12782">
        <ele>836.79998779297</ele>
        <time>2020-10-03T08:40:27.000Z</time>
      </trkpt>
      <trkpt lat="44.13758" lon="3.12782">
        <ele>836.59997558594</ele>
        <time>2020-10-03T08:40:28.000Z</time>
      </trkpt>
      <trkpt lat="44.13767" lon="3.12782">
        <ele>836.20001220703</ele>
        <time>2020-10-03T08:40:30.000Z</time>
      </trkpt>
      <trkpt lat="44.13771" lon="3.12783">
        <ele>835.59997558594</ele>
        <time>2020-10-03T08:40:31.000Z</time>
      </trkpt>
      <trkpt lat="44.13774" lon="3.12783">
        <ele>835.20001220703</ele>
        <time>2020-10-03T08:40:32.000Z</time>
      </trkpt>
      <trkpt lat="44.1378" lon="3.12783">
        <ele>834.79998779297</ele>
        <time>2020-10-03T08:40:34.000Z</time>
      </trkpt>
      <trkpt lat="44.13784" lon="3.12783">
        <ele>834.59997558594</ele>
        <time>2020-10-03T08:40:36.000Z</time>
      </trkpt>
      <trkpt lat="44.13785" lon="3.12783">
        <ele>834.59997558594</ele>
        <time>2020-10-03T08:40:37.000Z</time>
      </trkpt>
      <trkpt lat="44.13787" lon="3.12783">
        <ele>834.59997558594</ele>
        <time>2020-10-03T08:40:38.000Z</time>
      </trkpt>
      <trkpt lat="44.13788" lon="3.12782">
        <ele>834.59997558594</ele>
        <time>2020-10-03T08:40:40.000Z</time>
      </trkpt>
      <trkpt lat="44.13789" lon="3.12781">
        <ele>834.59997558594</ele>
        <time>2020-10-03T08:40:42.000Z</time>
      </trkpt>
      <trkpt lat="44.1379" lon="3.1278">
        <ele>834.59997558594</ele>
        <time>2020-10-03T08:40:44.000Z</time>
      </trkpt>
      <trkpt lat="44.1379" lon="3.1278">
        <ele>834.59997558594</ele>
        <time>2020-10-03T08:40:45.000Z</time>
      </trkpt>
      <trkpt lat="44.1379" lon="3.12779">
        <ele>834.59997558594</ele>
        <time>2020-10-03T08:40:46.000Z</time>
      </trkpt>
      <trkpt lat="44.13791" lon="3.12778">
        <ele>834.59997558594</ele>
        <time>2020-10-03T08:40:48.000Z</time>
      </trkpt>
      <trkpt lat="44.13791" lon="3.12778">
        <ele>834.59997558594</ele>
        <time>2020-10-03T08:40:50.000Z</time>
      </trkpt>
      <trkpt lat="44.13791" lon="3.12777">
        <ele>834.59997558594</ele>
        <time>2020-10-03T08:40:52.000Z</time>
      </trkpt>
      <trkpt lat="44.13791" lon="3.12776">
        <ele>834.40002441406</ele>
        <time>2020-10-03T08:40:54.000Z</time>
      </trkpt>
      <trkpt lat="44.13792" lon="3.12776">
        <ele>834.20001220703</ele>
        <time>2020-10-03T08:40:56.000Z</time>
      </trkpt>
      <trkpt lat="44.13792" lon="3.12777">
        <ele>834.20001220703</ele>
        <time>2020-10-03T08:40:58.000Z</time>
      </trkpt>
      <trkpt lat="44.13792" lon="3.12777">
        <ele>834.20001220703</ele>
        <time>2020-10-03T08:41:00.000Z</time>
      </trkpt>
      <trkpt lat="44.13792" lon="3.12777">
        <ele>834.20001220703</ele>
        <time>2020-10-03T08:41:01.000Z</time>
      </trkpt>
      <trkpt lat="44.13792" lon="3.12777">
        <ele>834.20001220703</ele>
        <time>2020-10-03T08:41:02.000Z</time>
      </trkpt>
      <trkpt lat="44.13792" lon="3.12778">
        <ele>834.20001220703</ele>
        <time>2020-10-03T08:41:04.000Z</time>
      </trkpt>
      <trkpt lat="44.13792" lon="3.12781">
        <ele>834.40002441406</ele>
        <time>2020-10-03T08:41:06.000Z</time>
      </trkpt>
      <trkpt lat="44.13794" lon="3.12781">
        <ele>834.40002441406</ele>
        <time>2020-10-03T08:41:08.000Z</time>
      </trkpt>
      <trkpt lat="44.13794" lon="3.12783">
        <ele>834.40002441406</ele>
        <time>2020-10-03T08:41:10.000Z</time>
      </trkpt>
      <trkpt lat="44.13794" lon="3.12784">
        <ele>834.40002441406</ele>
        <time>2020-10-03T08:41:11.000Z</time>
      </trkpt>
      <trkpt lat="44.13794" lon="3.12784">
        <ele>834.40002441406</ele>
        <time>2020-10-03T08:41:12.000Z</time>
      </trkpt>
      <trkpt lat="44.13795" lon="3.12785">
        <ele>834.40002441406</ele>
        <time>2020-10-03T08:41:14.000Z</time>
      </trkpt>
      <trkpt lat="44.13795" lon="3.12785">
        <ele>834.40002441406</ele>
        <time>2020-10-03T08:41:16.000Z</time>
      </trkpt>
      <trkpt lat="44.13795" lon="3.12785">
        <ele>834.20001220703</ele>
        <time>2020-10-03T08:41:18.000Z</time>
      </trkpt>
      <trkpt lat="44.13795" lon="3.12785">
        <ele>834</ele>
        <time>2020-10-03T08:41:20.000Z</time>
      </trkpt>
      <trkpt lat="44.13796" lon="3.12784">
        <ele>833.79998779297</ele>
        <time>2020-10-03T08:41:22.000Z</time>
      </trkpt>
      <trkpt lat="44.13796" lon="3.12784">
        <ele>833.79998779297</ele>
        <time>2020-10-03T08:41:23.000Z</time>
      </trkpt>
      <trkpt lat="44.13796" lon="3.12784">
        <ele>833.79998779297</ele>
        <time>2020-10-03T08:41:24.000Z</time>
      </trkpt>
      <trkpt lat="44.13796" lon="3.12784">
        <ele>833.79998779297</ele>
        <time>2020-10-03T08:41:26.000Z</time>
      </trkpt>
      <trkpt lat="44.13796" lon="3.12783">
        <ele>833.79998779297</ele>
        <time>2020-10-03T08:41:28.000Z</time>
      </trkpt>
      <trkpt lat="44.13796" lon="3.12783">
        <ele>833.79998779297</ele>
        <time>2020-10-03T08:41:30.000Z</time>
      </trkpt>
      <trkpt lat="44.13796" lon="3.12782">
        <ele>833.59997558594</ele>
        <time>2020-10-03T08:41:32.000Z</time>
      </trkpt>
      <trkpt lat="44.13795" lon="3.12783">
        <ele>833.40002441406</ele>
        <time>2020-10-03T08:41:34.000Z</time>
      </trkpt>
      <trkpt lat="44.13796" lon="3.12783">
        <ele>833.40002441406</ele>
        <time>2020-10-03T08:41:36.000Z</time>
      </trkpt>
      <trkpt lat="44.13796" lon="3.12783">
        <ele>833.40002441406</ele>
        <time>2020-10-03T08:41:38.000Z</time>
      </trkpt>
      <trkpt lat="44.13796" lon="3.12782">
        <ele>833.20001220703</ele>
        <time>2020-10-03T08:41:40.000Z</time>
      </trkpt>
      <trkpt lat="44.13796" lon="3.12781">
        <ele>833.20001220703</ele>
        <time>2020-10-03T08:41:42.000Z</time>
      </trkpt>
      <trkpt lat="44.13797" lon="3.12781">
        <ele>833.20001220703</ele>
        <time>2020-10-03T08:41:44.000Z</time>
      </trkpt>
      <trkpt lat="44.13797" lon="3.1278">
        <ele>833.20001220703</ele>
        <time>2020-10-03T08:41:46.000Z</time>
      </trkpt>
      <trkpt lat="44.13798" lon="3.12779">
        <ele>833.20001220703</ele>
        <time>2020-10-03T08:41:48.000Z</time>
      </trkpt>
      <trkpt lat="44.13798" lon="3.12779">
        <ele>833.20001220703</ele>
        <time>2020-10-03T08:41:50.000Z</time>
      </trkpt>
      <trkpt lat="44.13799" lon="3.12778">
        <ele>833.40002441406</ele>
        <time>2020-10-03T08:41:52.000Z</time>
      </trkpt>
      <trkpt lat="44.13799" lon="3.12778">
        <ele>833.40002441406</ele>
        <time>2020-10-03T08:41:54.000Z</time>
      </trkpt>
      <trkpt lat="44.13799" lon="3.12777">
        <ele>833.59997558594</ele>
        <time>2020-10-03T08:41:56.000Z</time>
      </trkpt>
      <trkpt lat="44.13799" lon="3.12777">
        <ele>833.59997558594</ele>
        <time>2020-10-03T08:41:58.000Z</time>
      </trkpt>
      <trkpt lat="44.13799" lon="3.12778">
        <ele>833.59997558594</ele>
        <time>2020-10-03T08:42:00.000Z</time>
      </trkpt>
      <trkpt lat="44.13798" lon="3.12779">
        <ele>833.59997558594</ele>
        <time>2020-10-03T08:42:02.000Z</time>
      </trkpt>
      <trkpt lat="44.13799" lon="3.12779">
        <ele>833.59997558594</ele>
        <time>2020-10-03T08:42:04.000Z</time>
      </trkpt>
      <trkpt lat="44.13799" lon="3.12779">
        <ele>833.59997558594</ele>
        <time>2020-10-03T08:42:06.000Z</time>
      </trkpt>
      <trkpt lat="44.13799" lon="3.12779">
        <ele>833.59997558594</ele>
        <time>2020-10-03T08:42:08.000Z</time>
      </trkpt>
      <trkpt lat="44.13799" lon="3.12779">
        <ele>833.59997558594</ele>
        <time>2020-10-03T08:42:10.000Z</time>
      </trkpt>
      <trkpt lat="44.13799" lon="3.12779">
        <ele>833.40002441406</ele>
        <time>2020-10-03T08:42:12.000Z</time>
      </trkpt>
      <trkpt lat="44.13799" lon="3.12779">
        <ele>833.40002441406</ele>
        <time>2020-10-03T08:42:14.000Z</time>
      </trkpt>
      <trkpt lat="44.13799" lon="3.12779">
        <ele>833.40002441406</ele>
        <time>2020-10-03T08:42:15.000Z</time>
      </trkpt>
      <trkpt lat="44.13799" lon="3.12779">
        <ele>833.40002441406</ele>
        <time>2020-10-03T08:42:16.000Z</time>
      </trkpt>
      <trkpt lat="44.13799" lon="3.12779">
        <ele>833.40002441406</ele>
        <time>2020-10-03T08:42:18.000Z</time>
      </trkpt>
      <trkpt lat="44.13799" lon="3.12779">
        <ele>833.40002441406</ele>
        <time>2020-10-03T08:42:20.000Z</time>
      </trkpt>
      <trkpt lat="44.13799" lon="3.12779">
        <ele>833.40002441406</ele>
        <time>2020-10-03T08:42:22.000Z</time>
      </trkpt>
      <trkpt lat="44.13799" lon="3.12779">
        <ele>833.40002441406</ele>
        <time>2020-10-03T08:42:24.000Z</time>
      </trkpt>
      <trkpt lat="44.13799" lon="3.12778">
        <ele>833.40002441406</ele>
        <time>2020-10-03T08:42:26.000Z</time>
      </trkpt>
      <trkpt lat="44.13799" lon="3.12778">
        <ele>833.20001220703</ele>
        <time>2020-10-03T08:42:28.000Z</time>
      </trkpt>
      <trkpt lat="44.13799" lon="3.12777">
        <ele>833.20001220703</ele>
        <time>2020-10-03T08:42:30.000Z</time>
      </trkpt>
      <trkpt lat="44.13799" lon="3.12776">
        <ele>833</ele>
        <time>2020-10-03T08:42:32.000Z</time>
      </trkpt>
      <trkpt lat="44.138" lon="3.12775">
        <ele>833</ele>
        <time>2020-10-03T08:42:34.000Z</time>
      </trkpt>
      <trkpt lat="44.138" lon="3.12775">
        <ele>833</ele>
        <time>2020-10-03T08:42:36.000Z</time>
      </trkpt>
      <trkpt lat="44.138" lon="3.12776">
        <ele>833</ele>
        <time>2020-10-03T08:42:38.000Z</time>
      </trkpt>
      <trkpt lat="44.13799" lon="3.12775">
        <ele>833</ele>
        <time>2020-10-03T08:42:40.000Z</time>
      </trkpt>
      <trkpt lat="44.13799" lon="3.12775">
        <ele>833.20001220703</ele>
        <time>2020-10-03T08:42:42.000Z</time>
      </trkpt>
      <trkpt lat="44.13799" lon="3.12774">
        <ele>833.40002441406</ele>
        <time>2020-10-03T08:42:44.000Z</time>
      </trkpt>
      <trkpt lat="44.13798" lon="3.12774">
        <ele>833.40002441406</ele>
        <time>2020-10-03T08:42:46.000Z</time>
      </trkpt>
      <trkpt lat="44.13798" lon="3.12774">
        <ele>833.40002441406</ele>
        <time>2020-10-03T08:42:47.000Z</time>
      </trkpt>
      <trkpt lat="44.13797" lon="3.12775">
        <ele>833.40002441406</ele>
        <time>2020-10-03T08:42:48.000Z</time>
      </trkpt>
      <trkpt lat="44.13798" lon="3.12775">
        <ele>833.40002441406</ele>
        <time>2020-10-03T08:42:50.000Z</time>
      </trkpt>
      <trkpt lat="44.13798" lon="3.12774">
        <ele>833.40002441406</ele>
        <time>2020-10-03T08:42:52.000Z</time>
      </trkpt>
      <trkpt lat="44.13799" lon="3.12773">
        <ele>833.40002441406</ele>
        <time>2020-10-03T08:42:54.000Z</time>
      </trkpt>
      <trkpt lat="44.138" lon="3.12773">
        <ele>833.40002441406</ele>
        <time>2020-10-03T08:42:56.000Z</time>
      </trkpt>
      <trkpt lat="44.13802" lon="3.12772">
        <ele>833.40002441406</ele>
        <time>2020-10-03T08:42:58.000Z</time>
      </trkpt>
      <trkpt lat="44.13802" lon="3.12772">
        <ele>833.40002441406</ele>
        <time>2020-10-03T08:42:59.000Z</time>
      </trkpt>
      <trkpt lat="44.13802" lon="3.12772">
        <ele>833.40002441406</ele>
        <time>2020-10-03T08:43:00.000Z</time>
      </trkpt>
      <trkpt lat="44.13804" lon="3.12773">
        <ele>833.59997558594</ele>
        <time>2020-10-03T08:43:02.000Z</time>
      </trkpt>
      <trkpt lat="44.13805" lon="3.12774">
        <ele>833.59997558594</ele>
        <time>2020-10-03T08:43:03.000Z</time>
      </trkpt>
      <trkpt lat="44.13806" lon="3.12775">
        <ele>833.59997558594</ele>
        <time>2020-10-03T08:43:04.000Z</time>
      </trkpt>
      <trkpt lat="44.13809" lon="3.12777">
        <ele>833.59997558594</ele>
        <time>2020-10-03T08:43:06.000Z</time>
      </trkpt>
      <trkpt lat="44.13812" lon="3.12778">
        <ele>833.59997558594</ele>
        <time>2020-10-03T08:43:08.000Z</time>
      </trkpt>
      <trkpt lat="44.13815" lon="3.12781">
        <ele>833.59997558594</ele>
        <time>2020-10-03T08:43:10.000Z</time>
      </trkpt>
      <trkpt lat="44.13819" lon="3.12785">
        <ele>833.40002441406</ele>
        <time>2020-10-03T08:43:12.000Z</time>
      </trkpt>
      <trkpt lat="44.13823" lon="3.1279">
        <ele>833.20001220703</ele>
        <time>2020-10-03T08:43:14.000Z</time>
      </trkpt>
      <trkpt lat="44.13828" lon="3.12796">
        <ele>833</ele>
        <time>2020-10-03T08:43:16.000Z</time>
      </trkpt>
      <trkpt lat="44.13834" lon="3.12805">
        <ele>832.79998779297</ele>
        <time>2020-10-03T08:43:18.000Z</time>
      </trkpt>
      <trkpt lat="44.13841" lon="3.12815">
        <ele>832.40002441406</ele>
        <time>2020-10-03T08:43:20.000Z</time>
      </trkpt>
      <trkpt lat="44.13851" lon="3.12826">
        <ele>832</ele>
        <time>2020-10-03T08:43:22.000Z</time>
      </trkpt>
      <trkpt lat="44.13856" lon="3.12832">
        <ele>831.40002441406</ele>
        <time>2020-10-03T08:43:23.000Z</time>
      </trkpt>
      <trkpt lat="44.13861" lon="3.12839">
        <ele>830.79998779297</ele>
        <time>2020-10-03T08:43:24.000Z</time>
      </trkpt>
      <trkpt lat="44.13866" lon="3.12845">
        <ele>830.20001220703</ele>
        <time>2020-10-03T08:43:25.000Z</time>
      </trkpt>
      <trkpt lat="44.1387" lon="3.12851">
        <ele>829.79998779297</ele>
        <time>2020-10-03T08:43:26.000Z</time>
      </trkpt>
      <trkpt lat="44.13875" lon="3.12857">
        <ele>829.20001220703</ele>
        <time>2020-10-03T08:43:27.000Z</time>
      </trkpt>
      <trkpt lat="44.13879" lon="3.12862">
        <ele>828.40002441406</ele>
        <time>2020-10-03T08:43:28.000Z</time>
      </trkpt>
      <trkpt lat="44.13884" lon="3.12866">
        <ele>827.59997558594</ele>
        <time>2020-10-03T08:43:29.000Z</time>
      </trkpt>
      <trkpt lat="44.13888" lon="3.12869">
        <ele>827</ele>
        <time>2020-10-03T08:43:30.000Z</time>
      </trkpt>
      <trkpt lat="44.13891" lon="3.12871">
        <ele>826.20001220703</ele>
        <time>2020-10-03T08:43:31.000Z</time>
      </trkpt>
      <trkpt lat="44.13894" lon="3.12874">
        <ele>825.20001220703</ele>
        <time>2020-10-03T08:43:32.000Z</time>
      </trkpt>
      <trkpt lat="44.13897" lon="3.12877">
        <ele>824.40002441406</ele>
        <time>2020-10-03T08:43:33.000Z</time>
      </trkpt>
      <trkpt lat="44.13899" lon="3.1288">
        <ele>823.59997558594</ele>
        <time>2020-10-03T08:43:34.000Z</time>
      </trkpt>
      <trkpt lat="44.13901" lon="3.12882">
        <ele>823</ele>
        <time>2020-10-03T08:43:35.000Z</time>
      </trkpt>
      <trkpt lat="44.13904" lon="3.12885">
        <ele>822.40002441406</ele>
        <time>2020-10-03T08:43:36.000Z</time>
      </trkpt>
      <trkpt lat="44.13909" lon="3.12887">
        <ele>821.79998779297</ele>
        <time>2020-10-03T08:43:38.000Z</time>
      </trkpt>
      <trkpt lat="44.13911" lon="3.12888">
        <ele>821.79998779297</ele>
        <time>2020-10-03T08:43:39.000Z</time>
      </trkpt>
      <trkpt lat="44.13914" lon="3.12888">
        <ele>821.59997558594</ele>
        <time>2020-10-03T08:43:40.000Z</time>
      </trkpt>
      <trkpt lat="44.1392" lon="3.12889">
        <ele>821.40002441406</ele>
        <time>2020-10-03T08:43:42.000Z</time>
      </trkpt>
      <trkpt lat="44.13925" lon="3.1289">
        <ele>821.40002441406</ele>
        <time>2020-10-03T08:43:44.000Z</time>
      </trkpt>
      <trkpt lat="44.1393" lon="3.12891">
        <ele>821.40002441406</ele>
        <time>2020-10-03T08:43:46.000Z</time>
      </trkpt>
      <trkpt lat="44.13936" lon="3.12894">
        <ele>821.40002441406</ele>
        <time>2020-10-03T08:43:48.000Z</time>
      </trkpt>
      <trkpt lat="44.13939" lon="3.12895">
        <ele>821.59997558594</ele>
        <time>2020-10-03T08:43:49.000Z</time>
      </trkpt>
      <trkpt lat="44.13942" lon="3.12897">
        <ele>821.59997558594</ele>
        <time>2020-10-03T08:43:50.000Z</time>
      </trkpt>
      <trkpt lat="44.13949" lon="3.12899">
        <ele>821.59997558594</ele>
        <time>2020-10-03T08:43:52.000Z</time>
      </trkpt>
      <trkpt lat="44.13955" lon="3.12901">
        <ele>821.59997558594</ele>
        <time>2020-10-03T08:43:54.000Z</time>
      </trkpt>
      <trkpt lat="44.13961" lon="3.12902">
        <ele>821.79998779297</ele>
        <time>2020-10-03T08:43:56.000Z</time>
      </trkpt>
      <trkpt lat="44.13966" lon="3.12903">
        <ele>822</ele>
        <time>2020-10-03T08:43:58.000Z</time>
      </trkpt>
      <trkpt lat="44.13972" lon="3.12906">
        <ele>822.20001220703</ele>
        <time>2020-10-03T08:44:00.000Z</time>
      </trkpt>
      <trkpt lat="44.13977" lon="3.1291">
        <ele>822.20001220703</ele>
        <time>2020-10-03T08:44:02.000Z</time>
      </trkpt>
      <trkpt lat="44.1398" lon="3.12912">
        <ele>822.20001220703</ele>
        <time>2020-10-03T08:44:03.000Z</time>
      </trkpt>
      <trkpt lat="44.13982" lon="3.12914">
        <ele>822.20001220703</ele>
        <time>2020-10-03T08:44:04.000Z</time>
      </trkpt>
      <trkpt lat="44.13986" lon="3.12917">
        <ele>822.20001220703</ele>
        <time>2020-10-03T08:44:06.000Z</time>
      </trkpt>
      <trkpt lat="44.1399" lon="3.12918">
        <ele>822.40002441406</ele>
        <time>2020-10-03T08:44:08.000Z</time>
      </trkpt>
      <trkpt lat="44.13995" lon="3.12919">
        <ele>822.40002441406</ele>
        <time>2020-10-03T08:44:10.000Z</time>
      </trkpt>
      <trkpt lat="44.14002" lon="3.1292">
        <ele>822.40002441406</ele>
        <time>2020-10-03T08:44:12.000Z</time>
      </trkpt>
      <trkpt lat="44.1401" lon="3.12922">
        <ele>822.40002441406</ele>
        <time>2020-10-03T08:44:14.000Z</time>
      </trkpt>
      <trkpt lat="44.14019" lon="3.12924">
        <ele>822.40002441406</ele>
        <time>2020-10-03T08:44:16.000Z</time>
      </trkpt>
      <trkpt lat="44.14028" lon="3.12925">
        <ele>822.40002441406</ele>
        <time>2020-10-03T08:44:18.000Z</time>
      </trkpt>
      <trkpt lat="44.14036" lon="3.12926">
        <ele>822.59997558594</ele>
        <time>2020-10-03T08:44:20.000Z</time>
      </trkpt>
      <trkpt lat="44.1404" lon="3.12926">
        <ele>822.59997558594</ele>
        <time>2020-10-03T08:44:21.000Z</time>
      </trkpt>
      <trkpt lat="44.14044" lon="3.12926">
        <ele>822.79998779297</ele>
        <time>2020-10-03T08:44:22.000Z</time>
      </trkpt>
      <trkpt lat="44.14047" lon="3.12926">
        <ele>822.79998779297</ele>
        <time>2020-10-03T08:44:23.000Z</time>
      </trkpt>
      <trkpt lat="44.1405" lon="3.12926">
        <ele>822.79998779297</ele>
        <time>2020-10-03T08:44:24.000Z</time>
      </trkpt>
      <trkpt lat="44.14059" lon="3.12926">
        <ele>823</ele>
        <time>2020-10-03T08:44:26.000Z</time>
      </trkpt>
      <trkpt lat="44.14069" lon="3.12926">
        <ele>823.40002441406</ele>
        <time>2020-10-03T08:44:28.000Z</time>
      </trkpt>
      <trkpt lat="44.14073" lon="3.12926">
        <ele>823.79998779297</ele>
        <time>2020-10-03T08:44:29.000Z</time>
      </trkpt>
      <trkpt lat="44.14076" lon="3.12926">
        <ele>824</ele>
        <time>2020-10-03T08:44:30.000Z</time>
      </trkpt>
      <trkpt lat="44.14083" lon="3.12927">
        <ele>824.40002441406</ele>
        <time>2020-10-03T08:44:32.000Z</time>
      </trkpt>
      <trkpt lat="44.14091" lon="3.12928">
        <ele>824.79998779297</ele>
        <time>2020-10-03T08:44:34.000Z</time>
      </trkpt>
      <trkpt lat="44.14099" lon="3.1293">
        <ele>825.20001220703</ele>
        <time>2020-10-03T08:44:36.000Z</time>
      </trkpt>
      <trkpt lat="44.14106" lon="3.12931">
        <ele>825.59997558594</ele>
        <time>2020-10-03T08:44:38.000Z</time>
      </trkpt>
      <trkpt lat="44.14113" lon="3.12933">
        <ele>825.79998779297</ele>
        <time>2020-10-03T08:44:40.000Z</time>
      </trkpt>
      <trkpt lat="44.14115" lon="3.12933">
        <ele>826</ele>
        <time>2020-10-03T08:44:41.000Z</time>
      </trkpt>
      <trkpt lat="44.14118" lon="3.12934">
        <ele>826.20001220703</ele>
        <time>2020-10-03T08:44:42.000Z</time>
      </trkpt>
      <trkpt lat="44.14122" lon="3.12936">
        <ele>826.40002441406</ele>
        <time>2020-10-03T08:44:44.000Z</time>
      </trkpt>
      <trkpt lat="44.14128" lon="3.12939">
        <ele>826.59997558594</ele>
        <time>2020-10-03T08:44:46.000Z</time>
      </trkpt>
      <trkpt lat="44.14134" lon="3.12945">
        <ele>826.59997558594</ele>
        <time>2020-10-03T08:44:48.000Z</time>
      </trkpt>
      <trkpt lat="44.14139" lon="3.1295">
        <ele>826.59997558594</ele>
        <time>2020-10-03T08:44:50.000Z</time>
      </trkpt>
      <trkpt lat="44.14144" lon="3.12956">
        <ele>826.59997558594</ele>
        <time>2020-10-03T08:44:52.000Z</time>
      </trkpt>
      <trkpt lat="44.14149" lon="3.1296">
        <ele>826.59997558594</ele>
        <time>2020-10-03T08:44:54.000Z</time>
      </trkpt>
      <trkpt lat="44.14151" lon="3.12962">
        <ele>826.59997558594</ele>
        <time>2020-10-03T08:44:55.000Z</time>
      </trkpt>
      <trkpt lat="44.14154" lon="3.12962">
        <ele>826.59997558594</ele>
        <time>2020-10-03T08:44:56.000Z</time>
      </trkpt>
      <trkpt lat="44.14159" lon="3.12963">
        <ele>826.40002441406</ele>
        <time>2020-10-03T08:44:58.000Z</time>
      </trkpt>
      <trkpt lat="44.14163" lon="3.12964">
        <ele>826</ele>
        <time>2020-10-03T08:45:00.000Z</time>
      </trkpt>
      <trkpt lat="44.14169" lon="3.12965">
        <ele>825.59997558594</ele>
        <time>2020-10-03T08:45:02.000Z</time>
      </trkpt>
      <trkpt lat="44.14171" lon="3.12965">
        <ele>825</ele>
        <time>2020-10-03T08:45:03.000Z</time>
      </trkpt>
      <trkpt lat="44.14175" lon="3.12965">
        <ele>824.40002441406</ele>
        <time>2020-10-03T08:45:04.000Z</time>
      </trkpt>
      <trkpt lat="44.14181" lon="3.12966">
        <ele>823.40002441406</ele>
        <time>2020-10-03T08:45:06.000Z</time>
      </trkpt>
      <trkpt lat="44.1419" lon="3.12969">
        <ele>822.59997558594</ele>
        <time>2020-10-03T08:45:08.000Z</time>
      </trkpt>
      <trkpt lat="44.14195" lon="3.12969">
        <ele>822</ele>
        <time>2020-10-03T08:45:09.000Z</time>
      </trkpt>
      <trkpt lat="44.142" lon="3.12969">
        <ele>821.20001220703</ele>
        <time>2020-10-03T08:45:10.000Z</time>
      </trkpt>
      <trkpt lat="44.14204" lon="3.1297">
        <ele>820.59997558594</ele>
        <time>2020-10-03T08:45:11.000Z</time>
      </trkpt>
      <trkpt lat="44.14209" lon="3.1297">
        <ele>820</ele>
        <time>2020-10-03T08:45:12.000Z</time>
      </trkpt>
      <trkpt lat="44.14214" lon="3.12969">
        <ele>819.20001220703</ele>
        <time>2020-10-03T08:45:13.000Z</time>
      </trkpt>
      <trkpt lat="44.14219" lon="3.12969">
        <ele>818</ele>
        <time>2020-10-03T08:45:14.000Z</time>
      </trkpt>
      <trkpt lat="44.1423" lon="3.12968">
        <ele>816.59997558594</ele>
        <time>2020-10-03T08:45:16.000Z</time>
      </trkpt>
      <trkpt lat="44.14236" lon="3.12968">
        <ele>815.59997558594</ele>
        <time>2020-10-03T08:45:17.000Z</time>
      </trkpt>
      <trkpt lat="44.14241" lon="3.12967">
        <ele>814.59997558594</ele>
        <time>2020-10-03T08:45:18.000Z</time>
      </trkpt>
      <trkpt lat="44.14247" lon="3.12964">
        <ele>813.79998779297</ele>
        <time>2020-10-03T08:45:19.000Z</time>
      </trkpt>
      <trkpt lat="44.14252" lon="3.12961">
        <ele>813</ele>
        <time>2020-10-03T08:45:20.000Z</time>
      </trkpt>
      <trkpt lat="44.14263" lon="3.12956">
        <ele>811.40002441406</ele>
        <time>2020-10-03T08:45:22.000Z</time>
      </trkpt>
      <trkpt lat="44.14274" lon="3.12952">
        <ele>810</ele>
        <time>2020-10-03T08:45:24.000Z</time>
      </trkpt>
      <trkpt lat="44.1428" lon="3.12949">
        <ele>809</ele>
        <time>2020-10-03T08:45:25.000Z</time>
      </trkpt>
      <trkpt lat="44.14285" lon="3.12946">
        <ele>808</ele>
        <time>2020-10-03T08:45:26.000Z</time>
      </trkpt>
      <trkpt lat="44.14298" lon="3.1294">
        <ele>806.20001220703</ele>
        <time>2020-10-03T08:45:28.000Z</time>
      </trkpt>
      <trkpt lat="44.14309" lon="3.12933">
        <ele>803.59997558594</ele>
        <time>2020-10-03T08:45:30.000Z</time>
      </trkpt>
      <trkpt lat="44.14316" lon="3.1293">
        <ele>802.20001220703</ele>
        <time>2020-10-03T08:45:31.000Z</time>
      </trkpt>
      <trkpt lat="44.14324" lon="3.12927">
        <ele>801.20001220703</ele>
        <time>2020-10-03T08:45:32.000Z</time>
      </trkpt>
      <trkpt lat="44.1433" lon="3.12924">
        <ele>799.40002441406</ele>
        <time>2020-10-03T08:45:33.000Z</time>
      </trkpt>
      <trkpt lat="44.14336" lon="3.1292">
        <ele>798.40002441406</ele>
        <time>2020-10-03T08:45:34.000Z</time>
      </trkpt>
      <trkpt lat="44.14346" lon="3.12913">
        <ele>796.59997558594</ele>
        <time>2020-10-03T08:45:36.000Z</time>
      </trkpt>
      <trkpt lat="44.1435" lon="3.12909">
        <ele>795.79998779297</ele>
        <time>2020-10-03T08:45:37.000Z</time>
      </trkpt>
      <trkpt lat="44.14353" lon="3.12905">
        <ele>795.20001220703</ele>
        <time>2020-10-03T08:45:38.000Z</time>
      </trkpt>
      <trkpt lat="44.14359" lon="3.12894">
        <ele>793.79998779297</ele>
        <time>2020-10-03T08:45:40.000Z</time>
      </trkpt>
      <trkpt lat="44.14362" lon="3.1289">
        <ele>792.79998779297</ele>
        <time>2020-10-03T08:45:41.000Z</time>
      </trkpt>
      <trkpt lat="44.14365" lon="3.12887">
        <ele>791.40002441406</ele>
        <time>2020-10-03T08:45:42.000Z</time>
      </trkpt>
      <trkpt lat="44.14368" lon="3.12885">
        <ele>790.20001220703</ele>
        <time>2020-10-03T08:45:43.000Z</time>
      </trkpt>
      <trkpt lat="44.14369" lon="3.12884">
        <ele>789.59997558594</ele>
        <time>2020-10-03T08:45:44.000Z</time>
      </trkpt>
      <trkpt lat="44.14371" lon="3.12883">
        <ele>789.20001220703</ele>
        <time>2020-10-03T08:45:45.000Z</time>
      </trkpt>
      <trkpt lat="44.14372" lon="3.12882">
        <ele>788.79998779297</ele>
        <time>2020-10-03T08:45:46.000Z</time>
      </trkpt>
      <trkpt lat="44.14375" lon="3.12881">
        <ele>788.40002441406</ele>
        <time>2020-10-03T08:45:48.000Z</time>
      </trkpt>
      <trkpt lat="44.14377" lon="3.12879">
        <ele>787.79998779297</ele>
        <time>2020-10-03T08:45:50.000Z</time>
      </trkpt>
      <trkpt lat="44.14378" lon="3.12879">
        <ele>787.40002441406</ele>
        <time>2020-10-03T08:45:52.000Z</time>
      </trkpt>
      <trkpt lat="44.14378" lon="3.12878">
        <ele>787.20001220703</ele>
        <time>2020-10-03T08:45:54.000Z</time>
      </trkpt>
      <trkpt lat="44.14379" lon="3.12878">
        <ele>787.20001220703</ele>
        <time>2020-10-03T08:45:55.000Z</time>
      </trkpt>
      <trkpt lat="44.14379" lon="3.12878">
        <ele>787.20001220703</ele>
        <time>2020-10-03T08:45:56.000Z</time>
      </trkpt>
      <trkpt lat="44.1438" lon="3.12878">
        <ele>787.20001220703</ele>
        <time>2020-10-03T08:45:58.000Z</time>
      </trkpt>
      <trkpt lat="44.1438" lon="3.12879">
        <ele>787.20001220703</ele>
        <time>2020-10-03T08:46:00.000Z</time>
      </trkpt>
      <trkpt lat="44.14381" lon="3.12879">
        <ele>787.20001220703</ele>
        <time>2020-10-03T08:46:02.000Z</time>
      </trkpt>
      <trkpt lat="44.14381" lon="3.12879">
        <ele>787.20001220703</ele>
        <time>2020-10-03T08:46:04.000Z</time>
      </trkpt>
      <trkpt lat="44.14381" lon="3.12879">
        <ele>787.20001220703</ele>
        <time>2020-10-03T08:46:06.000Z</time>
      </trkpt>
      <trkpt lat="44.14381" lon="3.12879">
        <ele>787</ele>
        <time>2020-10-03T08:46:08.000Z</time>
      </trkpt>
      <trkpt lat="44.14381" lon="3.12879">
        <ele>787</ele>
        <time>2020-10-03T08:46:10.000Z</time>
      </trkpt>
      <trkpt lat="44.14381" lon="3.12879">
        <ele>787.20001220703</ele>
        <time>2020-10-03T08:46:12.000Z</time>
      </trkpt>
      <trkpt lat="44.14381" lon="3.12879">
        <ele>787.20001220703</ele>
        <time>2020-10-03T08:46:14.000Z</time>
      </trkpt>
      <trkpt lat="44.14381" lon="3.12879">
        <ele>787.20001220703</ele>
        <time>2020-10-03T08:46:16.000Z</time>
      </trkpt>
      <trkpt lat="44.14381" lon="3.12879">
        <ele>787.20001220703</ele>
        <time>2020-10-03T08:46:18.000Z</time>
      </trkpt>
      <trkpt lat="44.14382" lon="3.12878">
        <ele>787.20001220703</ele>
        <time>2020-10-03T08:46:20.000Z</time>
      </trkpt>
      <trkpt lat="44.14382" lon="3.12878">
        <ele>787.20001220703</ele>
        <time>2020-10-03T08:46:22.000Z</time>
      </trkpt>
      <trkpt lat="44.14382" lon="3.12878">
        <ele>787.20001220703</ele>
        <time>2020-10-03T08:46:24.000Z</time>
      </trkpt>
      <trkpt lat="44.14382" lon="3.12878">
        <ele>787.20001220703</ele>
        <time>2020-10-03T08:46:26.000Z</time>
      </trkpt>
      <trkpt lat="44.14382" lon="3.12878">
        <ele>787.20001220703</ele>
        <time>2020-10-03T08:46:28.000Z</time>
      </trkpt>
      <trkpt lat="44.14382" lon="3.12878">
        <ele>787</ele>
        <time>2020-10-03T08:46:30.000Z</time>
      </trkpt>
      <trkpt lat="44.14382" lon="3.12878">
        <ele>787</ele>
        <time>2020-10-03T08:46:32.000Z</time>
      </trkpt>
      <trkpt lat="44.14382" lon="3.12878">
        <ele>787</ele>
        <time>2020-10-03T08:46:34.000Z</time>
      </trkpt>
      <trkpt lat="44.14382" lon="3.12878">
        <ele>787</ele>
        <time>2020-10-03T08:46:36.000Z</time>
      </trkpt>
      <trkpt lat="44.14382" lon="3.12878">
        <ele>787.20001220703</ele>
        <time>2020-10-03T08:46:38.000Z</time>
      </trkpt>
      <trkpt lat="44.14382" lon="3.12878">
        <ele>787.20001220703</ele>
        <time>2020-10-03T08:46:40.000Z</time>
      </trkpt>
      <trkpt lat="44.14382" lon="3.12878">
        <ele>787.20001220703</ele>
        <time>2020-10-03T08:46:42.000Z</time>
      </trkpt>
      <trkpt lat="44.14382" lon="3.12878">
        <ele>787.20001220703</ele>
        <time>2020-10-03T08:46:44.000Z</time>
      </trkpt>
      <trkpt lat="44.14382" lon="3.12878">
        <ele>787.20001220703</ele>
        <time>2020-10-03T08:46:46.000Z</time>
      </trkpt>
      <trkpt lat="44.14382" lon="3.12877">
        <ele>787.20001220703</ele>
        <time>2020-10-03T08:46:48.000Z</time>
      </trkpt>
      <trkpt lat="44.14382" lon="3.12875">
        <ele>787.20001220703</ele>
        <time>2020-10-03T08:46:50.000Z</time>
      </trkpt>
      <trkpt lat="44.14382" lon="3.12873">
        <ele>787</ele>
        <time>2020-10-03T08:46:52.000Z</time>
      </trkpt>
      <trkpt lat="44.14385" lon="3.12869">
        <ele>787</ele>
        <time>2020-10-03T08:46:54.000Z</time>
      </trkpt>
      <trkpt lat="44.14389" lon="3.12866">
        <ele>786.59997558594</ele>
        <time>2020-10-03T08:46:56.000Z</time>
      </trkpt>
      <trkpt lat="44.14392" lon="3.12865">
        <ele>786.40002441406</ele>
        <time>2020-10-03T08:46:57.000Z</time>
      </trkpt>
      <trkpt lat="44.14394" lon="3.12865">
        <ele>786.20001220703</ele>
        <time>2020-10-03T08:46:58.000Z</time>
      </trkpt>
      <trkpt lat="44.144" lon="3.12863">
        <ele>785.40002441406</ele>
        <time>2020-10-03T08:47:00.000Z</time>
      </trkpt>
      <trkpt lat="44.14403" lon="3.12862">
        <ele>784.79998779297</ele>
        <time>2020-10-03T08:47:01.000Z</time>
      </trkpt>
      <trkpt lat="44.14406" lon="3.12862">
        <ele>784</ele>
        <time>2020-10-03T08:47:02.000Z</time>
      </trkpt>
      <trkpt lat="44.14409" lon="3.12862">
        <ele>783.20001220703</ele>
        <time>2020-10-03T08:47:03.000Z</time>
      </trkpt>
      <trkpt lat="44.14411" lon="3.12864">
        <ele>782.59997558594</ele>
        <time>2020-10-03T08:47:04.000Z</time>
      </trkpt>
      <trkpt lat="44.14414" lon="3.12865">
        <ele>781.59997558594</ele>
        <time>2020-10-03T08:47:05.000Z</time>
      </trkpt>
      <trkpt lat="44.14417" lon="3.12867">
        <ele>781</ele>
        <time>2020-10-03T08:47:06.000Z</time>
      </trkpt>
      <trkpt lat="44.14419" lon="3.12869">
        <ele>780.40002441406</ele>
        <time>2020-10-03T08:47:07.000Z</time>
      </trkpt>
      <trkpt lat="44.14421" lon="3.1287">
        <ele>779.59997558594</ele>
        <time>2020-10-03T08:47:08.000Z</time>
      </trkpt>
      <trkpt lat="44.14424" lon="3.12871">
        <ele>778.79998779297</ele>
        <time>2020-10-03T08:47:09.000Z</time>
      </trkpt>
      <trkpt lat="44.14427" lon="3.12871">
        <ele>777.79998779297</ele>
        <time>2020-10-03T08:47:10.000Z</time>
      </trkpt>
      <trkpt lat="44.1443" lon="3.12869">
        <ele>776.40002441406</ele>
        <time>2020-10-03T08:47:11.000Z</time>
      </trkpt>
      <trkpt lat="44.14434" lon="3.12868">
        <ele>775.40002441406</ele>
        <time>2020-10-03T08:47:12.000Z</time>
      </trkpt>
      <trkpt lat="44.14436" lon="3.12866">
        <ele>774.40002441406</ele>
        <time>2020-10-03T08:47:13.000Z</time>
      </trkpt>
      <trkpt lat="44.14438" lon="3.12864">
        <ele>773.20001220703</ele>
        <time>2020-10-03T08:47:14.000Z</time>
      </trkpt>
      <trkpt lat="44.14439" lon="3.12861">
        <ele>772.20001220703</ele>
        <time>2020-10-03T08:47:15.000Z</time>
      </trkpt>
      <trkpt lat="44.1444" lon="3.12858">
        <ele>771.40002441406</ele>
        <time>2020-10-03T08:47:16.000Z</time>
      </trkpt>
      <trkpt lat="44.14441" lon="3.12854">
        <ele>770.59997558594</ele>
        <time>2020-10-03T08:47:17.000Z</time>
      </trkpt>
      <trkpt lat="44.14441" lon="3.1285">
        <ele>769.79998779297</ele>
        <time>2020-10-03T08:47:18.000Z</time>
      </trkpt>
      <trkpt lat="44.1444" lon="3.12845">
        <ele>769</ele>
        <time>2020-10-03T08:47:19.000Z</time>
      </trkpt>
      <trkpt lat="44.1444" lon="3.1284">
        <ele>768</ele>
        <time>2020-10-03T08:47:20.000Z</time>
      </trkpt>
      <trkpt lat="44.14439" lon="3.12835">
        <ele>767.20001220703</ele>
        <time>2020-10-03T08:47:21.000Z</time>
      </trkpt>
      <trkpt lat="44.14438" lon="3.1283">
        <ele>766.40002441406</ele>
        <time>2020-10-03T08:47:22.000Z</time>
      </trkpt>
      <trkpt lat="44.14437" lon="3.12825">
        <ele>765.59997558594</ele>
        <time>2020-10-03T08:47:23.000Z</time>
      </trkpt>
      <trkpt lat="44.14435" lon="3.12821">
        <ele>764.59997558594</ele>
        <time>2020-10-03T08:47:24.000Z</time>
      </trkpt>
      <trkpt lat="44.14433" lon="3.12817">
        <ele>763.59997558594</ele>
        <time>2020-10-03T08:47:25.000Z</time>
      </trkpt>
      <trkpt lat="44.14431" lon="3.12813">
        <ele>763</ele>
        <time>2020-10-03T08:47:26.000Z</time>
      </trkpt>
      <trkpt lat="44.14428" lon="3.1281">
        <ele>762</ele>
        <time>2020-10-03T08:47:27.000Z</time>
      </trkpt>
      <trkpt lat="44.14425" lon="3.12806">
        <ele>761.20001220703</ele>
        <time>2020-10-03T08:47:28.000Z</time>
      </trkpt>
      <trkpt lat="44.14423" lon="3.12802">
        <ele>759</ele>
        <time>2020-10-03T08:47:29.000Z</time>
      </trkpt>
      <trkpt lat="44.14421" lon="3.12797">
        <ele>758.40002441406</ele>
        <time>2020-10-03T08:47:30.000Z</time>
      </trkpt>
      <trkpt lat="44.14419" lon="3.12791">
        <ele>757.40002441406</ele>
        <time>2020-10-03T08:47:31.000Z</time>
      </trkpt>
      <trkpt lat="44.14417" lon="3.12786">
        <ele>756.59997558594</ele>
        <time>2020-10-03T08:47:32.000Z</time>
      </trkpt>
      <trkpt lat="44.14416" lon="3.12781">
        <ele>756</ele>
        <time>2020-10-03T08:47:33.000Z</time>
      </trkpt>
      <trkpt lat="44.14413" lon="3.12775">
        <ele>755</ele>
        <time>2020-10-03T08:47:34.000Z</time>
      </trkpt>
      <trkpt lat="44.14411" lon="3.1277">
        <ele>754</ele>
        <time>2020-10-03T08:47:35.000Z</time>
      </trkpt>
      <trkpt lat="44.14408" lon="3.12766">
        <ele>753.40002441406</ele>
        <time>2020-10-03T08:47:36.000Z</time>
      </trkpt>
      <trkpt lat="44.14406" lon="3.12762">
        <ele>752.40002441406</ele>
        <time>2020-10-03T08:47:37.000Z</time>
      </trkpt>
      <trkpt lat="44.14403" lon="3.12758">
        <ele>751.20001220703</ele>
        <time>2020-10-03T08:47:38.000Z</time>
      </trkpt>
      <trkpt lat="44.144" lon="3.12755">
        <ele>750</ele>
        <time>2020-10-03T08:47:39.000Z</time>
      </trkpt>
      <trkpt lat="44.14398" lon="3.12751">
        <ele>749</ele>
        <time>2020-10-03T08:47:40.000Z</time>
      </trkpt>
      <trkpt lat="44.14394" lon="3.12742">
        <ele>747.59997558594</ele>
        <time>2020-10-03T08:47:42.000Z</time>
      </trkpt>
      <trkpt lat="44.14392" lon="3.12731">
        <ele>746</ele>
        <time>2020-10-03T08:47:44.000Z</time>
      </trkpt>
      <trkpt lat="44.14393" lon="3.12721">
        <ele>744</ele>
        <time>2020-10-03T08:47:46.000Z</time>
      </trkpt>
      <trkpt lat="44.14395" lon="3.12709">
        <ele>742.20001220703</ele>
        <time>2020-10-03T08:47:48.000Z</time>
      </trkpt>
      <trkpt lat="44.14398" lon="3.12699">
        <ele>740.79998779297</ele>
        <time>2020-10-03T08:47:50.000Z</time>
      </trkpt>
      <trkpt lat="44.14398" lon="3.12695">
        <ele>739.59997558594</ele>
        <time>2020-10-03T08:47:51.000Z</time>
      </trkpt>
      <trkpt lat="44.14398" lon="3.1269">
        <ele>738.59997558594</ele>
        <time>2020-10-03T08:47:52.000Z</time>
      </trkpt>
      <trkpt lat="44.14397" lon="3.12685">
        <ele>737.59997558594</ele>
        <time>2020-10-03T08:47:53.000Z</time>
      </trkpt>
      <trkpt lat="44.14396" lon="3.12681">
        <ele>737</ele>
        <time>2020-10-03T08:47:54.000Z</time>
      </trkpt>
      <trkpt lat="44.14394" lon="3.12676">
        <ele>736</ele>
        <time>2020-10-03T08:47:55.000Z</time>
      </trkpt>
      <trkpt lat="44.14393" lon="3.12672">
        <ele>735</ele>
        <time>2020-10-03T08:47:56.000Z</time>
      </trkpt>
      <trkpt lat="44.14389" lon="3.12664">
        <ele>732.59997558594</ele>
        <time>2020-10-03T08:47:58.000Z</time>
      </trkpt>
      <trkpt lat="44.14385" lon="3.12654">
        <ele>730.79998779297</ele>
        <time>2020-10-03T08:48:00.000Z</time>
      </trkpt>
      <trkpt lat="44.14379" lon="3.12646">
        <ele>729</ele>
        <time>2020-10-03T08:48:02.000Z</time>
      </trkpt>
      <trkpt lat="44.14372" lon="3.12638">
        <ele>727.40002441406</ele>
        <time>2020-10-03T08:48:04.000Z</time>
      </trkpt>
      <trkpt lat="44.14366" lon="3.12631">
        <ele>725.79998779297</ele>
        <time>2020-10-03T08:48:06.000Z</time>
      </trkpt>
      <trkpt lat="44.14363" lon="3.12628">
        <ele>724.59997558594</ele>
        <time>2020-10-03T08:48:07.000Z</time>
      </trkpt>
      <trkpt lat="44.14361" lon="3.12625">
        <ele>723.20001220703</ele>
        <time>2020-10-03T08:48:08.000Z</time>
      </trkpt>
      <trkpt lat="44.14358" lon="3.12622">
        <ele>722.20001220703</ele>
        <time>2020-10-03T08:48:09.000Z</time>
      </trkpt>
      <trkpt lat="44.14356" lon="3.1262">
        <ele>721.59997558594</ele>
        <time>2020-10-03T08:48:10.000Z</time>
      </trkpt>
      <trkpt lat="44.14355" lon="3.12616">
        <ele>721</ele>
        <time>2020-10-03T08:48:11.000Z</time>
      </trkpt>
      <trkpt lat="44.14353" lon="3.12613">
        <ele>720.40002441406</ele>
        <time>2020-10-03T08:48:12.000Z</time>
      </trkpt>
      <trkpt lat="44.14352" lon="3.1261">
        <ele>719.79998779297</ele>
        <time>2020-10-03T08:48:13.000Z</time>
      </trkpt>
      <trkpt lat="44.1435" lon="3.12607">
        <ele>719.20001220703</ele>
        <time>2020-10-03T08:48:14.000Z</time>
      </trkpt>
      <trkpt lat="44.14349" lon="3.12605">
        <ele>718.59997558594</ele>
        <time>2020-10-03T08:48:15.000Z</time>
      </trkpt>
      <trkpt lat="44.14348" lon="3.12602">
        <ele>717.79998779297</ele>
        <time>2020-10-03T08:48:16.000Z</time>
      </trkpt>
      <trkpt lat="44.14348" lon="3.126">
        <ele>716.79998779297</ele>
        <time>2020-10-03T08:48:17.000Z</time>
      </trkpt>
      <trkpt lat="44.14348" lon="3.12598">
        <ele>715.79998779297</ele>
        <time>2020-10-03T08:48:18.000Z</time>
      </trkpt>
      <trkpt lat="44.14348" lon="3.12596">
        <ele>714.79998779297</ele>
        <time>2020-10-03T08:48:19.000Z</time>
      </trkpt>
      <trkpt lat="44.14347" lon="3.12593">
        <ele>713.79998779297</ele>
        <time>2020-10-03T08:48:20.000Z</time>
      </trkpt>
      <trkpt lat="44.14347" lon="3.1259">
        <ele>712.79998779297</ele>
        <time>2020-10-03T08:48:21.000Z</time>
      </trkpt>
      <trkpt lat="44.14346" lon="3.12587">
        <ele>711.79998779297</ele>
        <time>2020-10-03T08:48:22.000Z</time>
      </trkpt>
      <trkpt lat="44.14344" lon="3.12585">
        <ele>711</ele>
        <time>2020-10-03T08:48:23.000Z</time>
      </trkpt>
      <trkpt lat="44.14343" lon="3.12583">
        <ele>710.20001220703</ele>
        <time>2020-10-03T08:48:24.000Z</time>
      </trkpt>
      <trkpt lat="44.14341" lon="3.1258">
        <ele>709.40002441406</ele>
        <time>2020-10-03T08:48:25.000Z</time>
      </trkpt>
      <trkpt lat="44.1434" lon="3.12578">
        <ele>708.40002441406</ele>
        <time>2020-10-03T08:48:26.000Z</time>
      </trkpt>
      <trkpt lat="44.14339" lon="3.12576">
        <ele>707.59997558594</ele>
        <time>2020-10-03T08:48:27.000Z</time>
      </trkpt>
      <trkpt lat="44.14338" lon="3.12574">
        <ele>705.59997558594</ele>
        <time>2020-10-03T08:48:28.000Z</time>
      </trkpt>
      <trkpt lat="44.14339" lon="3.12573">
        <ele>704.59997558594</ele>
        <time>2020-10-03T08:48:29.000Z</time>
      </trkpt>
      <trkpt lat="44.1434" lon="3.12572">
        <ele>703.40002441406</ele>
        <time>2020-10-03T08:48:30.000Z</time>
      </trkpt>
      <trkpt lat="44.14341" lon="3.1257">
        <ele>702.40002441406</ele>
        <time>2020-10-03T08:48:31.000Z</time>
      </trkpt>
      <trkpt lat="44.14341" lon="3.12569">
        <ele>701.40002441406</ele>
        <time>2020-10-03T08:48:32.000Z</time>
      </trkpt>
      <trkpt lat="44.14341" lon="3.12562">
        <ele>699.79998779297</ele>
        <time>2020-10-03T08:48:34.000Z</time>
      </trkpt>
      <trkpt lat="44.14338" lon="3.12553">
        <ele>698</ele>
        <time>2020-10-03T08:48:36.000Z</time>
      </trkpt>
      <trkpt lat="44.14335" lon="3.12544">
        <ele>696.40002441406</ele>
        <time>2020-10-03T08:48:38.000Z</time>
      </trkpt>
      <trkpt lat="44.14334" lon="3.1254">
        <ele>695.59997558594</ele>
        <time>2020-10-03T08:48:39.000Z</time>
      </trkpt>
      <trkpt lat="44.14333" lon="3.12535">
        <ele>695.20001220703</ele>
        <time>2020-10-03T08:48:40.000Z</time>
      </trkpt>
      <trkpt lat="44.1433" lon="3.12527">
        <ele>694.59997558594</ele>
        <time>2020-10-03T08:48:42.000Z</time>
      </trkpt>
      <trkpt lat="44.14331" lon="3.12518">
        <ele>694.40002441406</ele>
        <time>2020-10-03T08:48:44.000Z</time>
      </trkpt>
      <trkpt lat="44.14335" lon="3.12511">
        <ele>694.20001220703</ele>
        <time>2020-10-03T08:48:46.000Z</time>
      </trkpt>
      <trkpt lat="44.14339" lon="3.12508">
        <ele>694.20001220703</ele>
        <time>2020-10-03T08:48:47.000Z</time>
      </trkpt>
      <trkpt lat="44.14343" lon="3.12504">
        <ele>693.79998779297</ele>
        <time>2020-10-03T08:48:48.000Z</time>
      </trkpt>
      <trkpt lat="44.14347" lon="3.125">
        <ele>693.79998779297</ele>
        <time>2020-10-03T08:48:49.000Z</time>
      </trkpt>
      <trkpt lat="44.1435" lon="3.12496">
        <ele>693.59997558594</ele>
        <time>2020-10-03T08:48:50.000Z</time>
      </trkpt>
      <trkpt lat="44.14353" lon="3.12491">
        <ele>693.40002441406</ele>
        <time>2020-10-03T08:48:51.000Z</time>
      </trkpt>
      <trkpt lat="44.14355" lon="3.12485">
        <ele>693.20001220703</ele>
        <time>2020-10-03T08:48:52.000Z</time>
      </trkpt>
      <trkpt lat="44.14361" lon="3.12475">
        <ele>692.40002441406</ele>
        <time>2020-10-03T08:48:54.000Z</time>
      </trkpt>
      <trkpt lat="44.14365" lon="3.12464">
        <ele>690.59997558594</ele>
        <time>2020-10-03T08:48:56.000Z</time>
      </trkpt>
      <trkpt lat="44.14367" lon="3.12458">
        <ele>688.79998779297</ele>
        <time>2020-10-03T08:48:57.000Z</time>
      </trkpt>
      <trkpt lat="44.14368" lon="3.12453">
        <ele>688</ele>
        <time>2020-10-03T08:48:58.000Z</time>
      </trkpt>
      <trkpt lat="44.14369" lon="3.12448">
        <ele>687.20001220703</ele>
        <time>2020-10-03T08:48:59.000Z</time>
      </trkpt>
      <trkpt lat="44.1437" lon="3.12442">
        <ele>686</ele>
        <time>2020-10-03T08:49:00.000Z</time>
      </trkpt>
      <trkpt lat="44.1437" lon="3.12434">
        <ele>684.59997558594</ele>
        <time>2020-10-03T08:49:02.000Z</time>
      </trkpt>
      <trkpt lat="44.1437" lon="3.12425">
        <ele>683.59997558594</ele>
        <time>2020-10-03T08:49:04.000Z</time>
      </trkpt>
      <trkpt lat="44.14369" lon="3.1242">
        <ele>683.40002441406</ele>
        <time>2020-10-03T08:49:05.000Z</time>
      </trkpt>
      <trkpt lat="44.14369" lon="3.12415">
        <ele>683.20001220703</ele>
        <time>2020-10-03T08:49:06.000Z</time>
      </trkpt>
      <trkpt lat="44.14367" lon="3.12404">
        <ele>683</ele>
        <time>2020-10-03T08:49:08.000Z</time>
      </trkpt>
      <trkpt lat="44.14366" lon="3.12394">
        <ele>682.59997558594</ele>
        <time>2020-10-03T08:49:10.000Z</time>
      </trkpt>
      <trkpt lat="44.14364" lon="3.12383">
        <ele>682.40002441406</ele>
        <time>2020-10-03T08:49:12.000Z</time>
      </trkpt>
      <trkpt lat="44.14363" lon="3.12378">
        <ele>682.40002441406</ele>
        <time>2020-10-03T08:49:13.000Z</time>
      </trkpt>
      <trkpt lat="44.14363" lon="3.12371">
        <ele>682.20001220703</ele>
        <time>2020-10-03T08:49:14.000Z</time>
      </trkpt>
      <trkpt lat="44.14364" lon="3.12364">
        <ele>682</ele>
        <time>2020-10-03T08:49:15.000Z</time>
      </trkpt>
      <trkpt lat="44.14364" lon="3.12357">
        <ele>681.79998779297</ele>
        <time>2020-10-03T08:49:16.000Z</time>
      </trkpt>
      <trkpt lat="44.14365" lon="3.1235">
        <ele>681.59997558594</ele>
        <time>2020-10-03T08:49:17.000Z</time>
      </trkpt>
      <trkpt lat="44.14365" lon="3.12343">
        <ele>681.40002441406</ele>
        <time>2020-10-03T08:49:18.000Z</time>
      </trkpt>
      <trkpt lat="44.14362" lon="3.12328">
        <ele>680.59997558594</ele>
        <time>2020-10-03T08:49:20.000Z</time>
      </trkpt>
      <trkpt lat="44.14361" lon="3.12319">
        <ele>680.59997558594</ele>
        <time>2020-10-03T08:49:21.000Z</time>
      </trkpt>
      <trkpt lat="44.14359" lon="3.12309">
        <ele>680.20001220703</ele>
        <time>2020-10-03T08:49:22.000Z</time>
      </trkpt>
      <trkpt lat="44.14356" lon="3.12299">
        <ele>679.59997558594</ele>
        <time>2020-10-03T08:49:23.000Z</time>
      </trkpt>
      <trkpt lat="44.14355" lon="3.12291">
        <ele>678.59997558594</ele>
        <time>2020-10-03T08:49:24.000Z</time>
      </trkpt>
      <trkpt lat="44.14352" lon="3.12284">
        <ele>677.20001220703</ele>
        <time>2020-10-03T08:49:25.000Z</time>
      </trkpt>
      <trkpt lat="44.14351" lon="3.12278">
        <ele>674.59997558594</ele>
        <time>2020-10-03T08:49:26.000Z</time>
      </trkpt>
      <trkpt lat="44.1435" lon="3.12273">
        <ele>673.59997558594</ele>
        <time>2020-10-03T08:49:27.000Z</time>
      </trkpt>
      <trkpt lat="44.1435" lon="3.12269">
        <ele>672.79998779297</ele>
        <time>2020-10-03T08:49:28.000Z</time>
      </trkpt>
      <trkpt lat="44.14349" lon="3.12265">
        <ele>672.40002441406</ele>
        <time>2020-10-03T08:49:29.000Z</time>
      </trkpt>
      <trkpt lat="44.14348" lon="3.12262">
        <ele>672.20001220703</ele>
        <time>2020-10-03T08:49:30.000Z</time>
      </trkpt>
      <trkpt lat="44.14347" lon="3.12255">
        <ele>672</ele>
        <time>2020-10-03T08:49:32.000Z</time>
      </trkpt>
      <trkpt lat="44.14347" lon="3.12248">
        <ele>671.79998779297</ele>
        <time>2020-10-03T08:49:34.000Z</time>
      </trkpt>
      <trkpt lat="44.14346" lon="3.12241">
        <ele>671.79998779297</ele>
        <time>2020-10-03T08:49:36.000Z</time>
      </trkpt>
      <trkpt lat="44.14346" lon="3.12233">
        <ele>671.79998779297</ele>
        <time>2020-10-03T08:49:38.000Z</time>
      </trkpt>
      <trkpt lat="44.14347" lon="3.12224">
        <ele>672.40002441406</ele>
        <time>2020-10-03T08:49:40.000Z</time>
      </trkpt>
      <trkpt lat="44.14349" lon="3.12215">
        <ele>673</ele>
        <time>2020-10-03T08:49:42.000Z</time>
      </trkpt>
      <trkpt lat="44.1435" lon="3.12207">
        <ele>673.20001220703</ele>
        <time>2020-10-03T08:49:44.000Z</time>
      </trkpt>
      <trkpt lat="44.14351" lon="3.12198">
        <ele>673.40002441406</ele>
        <time>2020-10-03T08:49:46.000Z</time>
      </trkpt>
      <trkpt lat="44.14351" lon="3.12189">
        <ele>673.59997558594</ele>
        <time>2020-10-03T08:49:48.000Z</time>
      </trkpt>
      <trkpt lat="44.1435" lon="3.12181">
        <ele>673.59997558594</ele>
        <time>2020-10-03T08:49:50.000Z</time>
      </trkpt>
      <trkpt lat="44.1435" lon="3.12173">
        <ele>673.79998779297</ele>
        <time>2020-10-03T08:49:52.000Z</time>
      </trkpt>
      <trkpt lat="44.14349" lon="3.12166">
        <ele>673.79998779297</ele>
        <time>2020-10-03T08:49:54.000Z</time>
      </trkpt>
      <trkpt lat="44.14348" lon="3.1216">
        <ele>674.20001220703</ele>
        <time>2020-10-03T08:49:56.000Z</time>
      </trkpt>
      <trkpt lat="44.14348" lon="3.12154">
        <ele>674.40002441406</ele>
        <time>2020-10-03T08:49:58.000Z</time>
      </trkpt>
      <trkpt lat="44.14347" lon="3.12148">
        <ele>674.59997558594</ele>
        <time>2020-10-03T08:50:00.000Z</time>
      </trkpt>
      <trkpt lat="44.14347" lon="3.12142">
        <ele>675.40002441406</ele>
        <time>2020-10-03T08:50:02.000Z</time>
      </trkpt>
      <trkpt lat="44.14347" lon="3.12136">
        <ele>676.40002441406</ele>
        <time>2020-10-03T08:50:04.000Z</time>
      </trkpt>
      <trkpt lat="44.14346" lon="3.12132">
        <ele>677.20001220703</ele>
        <time>2020-10-03T08:50:06.000Z</time>
      </trkpt>
      <trkpt lat="44.14346" lon="3.12129">
        <ele>677.79998779297</ele>
        <time>2020-10-03T08:50:07.000Z</time>
      </trkpt>
      <trkpt lat="44.14346" lon="3.12127">
        <ele>678.40002441406</ele>
        <time>2020-10-03T08:50:08.000Z</time>
      </trkpt>
      <trkpt lat="44.14347" lon="3.12124">
        <ele>678.79998779297</ele>
        <time>2020-10-03T08:50:09.000Z</time>
      </trkpt>
      <trkpt lat="44.14348" lon="3.12122">
        <ele>679</ele>
        <time>2020-10-03T08:50:10.000Z</time>
      </trkpt>
      <trkpt lat="44.14348" lon="3.12119">
        <ele>679.20001220703</ele>
        <time>2020-10-03T08:50:11.000Z</time>
      </trkpt>
      <trkpt lat="44.14349" lon="3.12117">
        <ele>679.20001220703</ele>
        <time>2020-10-03T08:50:12.000Z</time>
      </trkpt>
      <trkpt lat="44.14352" lon="3.12113">
        <ele>679.40002441406</ele>
        <time>2020-10-03T08:50:14.000Z</time>
      </trkpt>
      <trkpt lat="44.14353" lon="3.12109">
        <ele>679.40002441406</ele>
        <time>2020-10-03T08:50:16.000Z</time>
      </trkpt>
      <trkpt lat="44.14355" lon="3.12105">
        <ele>679.59997558594</ele>
        <time>2020-10-03T08:50:18.000Z</time>
      </trkpt>
      <trkpt lat="44.14357" lon="3.12101">
        <ele>679.79998779297</ele>
        <time>2020-10-03T08:50:20.000Z</time>
      </trkpt>
      <trkpt lat="44.14359" lon="3.121">
        <ele>679.79998779297</ele>
        <time>2020-10-03T08:50:21.000Z</time>
      </trkpt>
      <trkpt lat="44.1436" lon="3.12098">
        <ele>679.79998779297</ele>
        <time>2020-10-03T08:50:22.000Z</time>
      </trkpt>
      <trkpt lat="44.14363" lon="3.12095">
        <ele>680</ele>
        <time>2020-10-03T08:50:24.000Z</time>
      </trkpt>
      <trkpt lat="44.14366" lon="3.12093">
        <ele>680.40002441406</ele>
        <time>2020-10-03T08:50:26.000Z</time>
      </trkpt>
      <trkpt lat="44.14368" lon="3.12091">
        <ele>680.79998779297</ele>
        <time>2020-10-03T08:50:28.000Z</time>
      </trkpt>
      <trkpt lat="44.1437" lon="3.12089">
        <ele>681.20001220703</ele>
        <time>2020-10-03T08:50:30.000Z</time>
      </trkpt>
      <trkpt lat="44.14372" lon="3.12088">
        <ele>681.79998779297</ele>
        <time>2020-10-03T08:50:32.000Z</time>
      </trkpt>
      <trkpt lat="44.14373" lon="3.12087">
        <ele>682</ele>
        <time>2020-10-03T08:50:33.000Z</time>
      </trkpt>
      <trkpt lat="44.14374" lon="3.12086">
        <ele>682.20001220703</ele>
        <time>2020-10-03T08:50:34.000Z</time>
      </trkpt>
      <trkpt lat="44.14376" lon="3.12084">
        <ele>682.59997558594</ele>
        <time>2020-10-03T08:50:36.000Z</time>
      </trkpt>
      <trkpt lat="44.14377" lon="3.12082">
        <ele>683</ele>
        <time>2020-10-03T08:50:38.000Z</time>
      </trkpt>
      <trkpt lat="44.14378" lon="3.12079">
        <ele>683.40002441406</ele>
        <time>2020-10-03T08:50:40.000Z</time>
      </trkpt>
      <trkpt lat="44.14378" lon="3.12076">
        <ele>683.59997558594</ele>
        <time>2020-10-03T08:50:42.000Z</time>
      </trkpt>
      <trkpt lat="44.14378" lon="3.12073">
        <ele>683.79998779297</ele>
        <time>2020-10-03T08:50:43.000Z</time>
      </trkpt>
      <trkpt lat="44.14378" lon="3.12072">
        <ele>684</ele>
        <time>2020-10-03T08:50:44.000Z</time>
      </trkpt>
      <trkpt lat="44.14377" lon="3.12067">
        <ele>684</ele>
        <time>2020-10-03T08:50:46.000Z</time>
      </trkpt>
      <trkpt lat="44.14375" lon="3.12063">
        <ele>684.20001220703</ele>
        <time>2020-10-03T08:50:48.000Z</time>
      </trkpt>
      <trkpt lat="44.14373" lon="3.1206">
        <ele>684.59997558594</ele>
        <time>2020-10-03T08:50:50.000Z</time>
      </trkpt>
      <trkpt lat="44.14373" lon="3.12059">
        <ele>684.59997558594</ele>
        <time>2020-10-03T08:50:52.000Z</time>
      </trkpt>
      <trkpt lat="44.14373" lon="3.12059">
        <ele>684.79998779297</ele>
        <time>2020-10-03T08:50:54.000Z</time>
      </trkpt>
      <trkpt lat="44.14373" lon="3.12059">
        <ele>684.79998779297</ele>
        <time>2020-10-03T08:50:55.000Z</time>
      </trkpt>
      <trkpt lat="44.14373" lon="3.12059">
        <ele>684.79998779297</ele>
        <time>2020-10-03T08:50:56.000Z</time>
      </trkpt>
      <trkpt lat="44.14373" lon="3.12059">
        <ele>684.79998779297</ele>
        <time>2020-10-03T08:50:58.000Z</time>
      </trkpt>
      <trkpt lat="44.14373" lon="3.12059">
        <ele>684.79998779297</ele>
        <time>2020-10-03T08:51:00.000Z</time>
      </trkpt>
      <trkpt lat="44.14373" lon="3.12059">
        <ele>684.79998779297</ele>
        <time>2020-10-03T08:51:02.000Z</time>
      </trkpt>
      <trkpt lat="44.14373" lon="3.12058">
        <ele>684.79998779297</ele>
        <time>2020-10-03T08:51:04.000Z</time>
      </trkpt>
      <trkpt lat="44.14373" lon="3.12058">
        <ele>684.79998779297</ele>
        <time>2020-10-03T08:51:06.000Z</time>
      </trkpt>
      <trkpt lat="44.14373" lon="3.12058">
        <ele>685</ele>
        <time>2020-10-03T08:51:08.000Z</time>
      </trkpt>
      <trkpt lat="44.14373" lon="3.12058">
        <ele>685</ele>
        <time>2020-10-03T08:51:10.000Z</time>
      </trkpt>
      <trkpt lat="44.14373" lon="3.12058">
        <ele>685</ele>
        <time>2020-10-03T08:51:12.000Z</time>
      </trkpt>
      <trkpt lat="44.14373" lon="3.12058">
        <ele>684.79998779297</ele>
        <time>2020-10-03T08:51:14.000Z</time>
      </trkpt>
      <trkpt lat="44.14373" lon="3.12058">
        <ele>684.79998779297</ele>
        <time>2020-10-03T08:51:16.000Z</time>
      </trkpt>
      <trkpt lat="44.14373" lon="3.12058">
        <ele>684.79998779297</ele>
        <time>2020-10-03T08:51:18.000Z</time>
      </trkpt>
      <trkpt lat="44.14373" lon="3.12058">
        <ele>684.79998779297</ele>
        <time>2020-10-03T08:51:20.000Z</time>
      </trkpt>
      <trkpt lat="44.14373" lon="3.12058">
        <ele>684.59997558594</ele>
        <time>2020-10-03T08:51:22.000Z</time>
      </trkpt>
      <trkpt lat="44.14373" lon="3.12058">
        <ele>684.59997558594</ele>
        <time>2020-10-03T08:51:24.000Z</time>
      </trkpt>
      <trkpt lat="44.14373" lon="3.12058">
        <ele>684.59997558594</ele>
        <time>2020-10-03T08:51:26.000Z</time>
      </trkpt>
      <trkpt lat="44.14373" lon="3.12058">
        <ele>684.59997558594</ele>
        <time>2020-10-03T08:51:28.000Z</time>
      </trkpt>
      <trkpt lat="44.14373" lon="3.12058">
        <ele>684.59997558594</ele>
        <time>2020-10-03T08:51:30.000Z</time>
      </trkpt>
      <trkpt lat="44.14373" lon="3.12058">
        <ele>684.59997558594</ele>
        <time>2020-10-03T08:51:32.000Z</time>
      </trkpt>
      <trkpt lat="44.14373" lon="3.12059">
        <ele>684.40002441406</ele>
        <time>2020-10-03T08:51:34.000Z</time>
      </trkpt>
      <trkpt lat="44.14373" lon="3.12059">
        <ele>684.40002441406</ele>
        <time>2020-10-03T08:51:36.000Z</time>
      </trkpt>
      <trkpt lat="44.14373" lon="3.12059">
        <ele>684.40002441406</ele>
        <time>2020-10-03T08:51:38.000Z</time>
      </trkpt>
      <trkpt lat="44.14373" lon="3.12059">
        <ele>684.40002441406</ele>
        <time>2020-10-03T08:51:40.000Z</time>
      </trkpt>
      <trkpt lat="44.14373" lon="3.12059">
        <ele>684.59997558594</ele>
        <time>2020-10-03T08:51:42.000Z</time>
      </trkpt>
      <trkpt lat="44.14373" lon="3.12059">
        <ele>684.59997558594</ele>
        <time>2020-10-03T08:51:44.000Z</time>
      </trkpt>
      <trkpt lat="44.14373" lon="3.12059">
        <ele>684.59997558594</ele>
        <time>2020-10-03T08:51:46.000Z</time>
      </trkpt>
      <trkpt lat="44.14373" lon="3.12059">
        <ele>684.59997558594</ele>
        <time>2020-10-03T08:51:48.000Z</time>
      </trkpt>
      <trkpt lat="44.14373" lon="3.12059">
        <ele>684.40002441406</ele>
        <time>2020-10-03T08:51:50.000Z</time>
      </trkpt>
      <trkpt lat="44.14373" lon="3.12059">
        <ele>684.40002441406</ele>
        <time>2020-10-03T08:51:52.000Z</time>
      </trkpt>
      <trkpt lat="44.14373" lon="3.12059">
        <ele>684.40002441406</ele>
        <time>2020-10-03T08:51:54.000Z</time>
      </trkpt>
      <trkpt lat="44.14373" lon="3.12059">
        <ele>684.59997558594</ele>
        <time>2020-10-03T08:51:56.000Z</time>
      </trkpt>
      <trkpt lat="44.14373" lon="3.12059">
        <ele>684.59997558594</ele>
        <time>2020-10-03T08:51:57.000Z</time>
      </trkpt>
      <trkpt lat="44.14373" lon="3.12059">
        <ele>684.59997558594</ele>
        <time>2020-10-03T08:51:58.000Z</time>
      </trkpt>
      <trkpt lat="44.14373" lon="3.12059">
        <ele>684.79998779297</ele>
        <time>2020-10-03T08:52:00.000Z</time>
      </trkpt>
      <trkpt lat="44.14373" lon="3.12059">
        <ele>684.79998779297</ele>
        <time>2020-10-03T08:52:02.000Z</time>
      </trkpt>
      <trkpt lat="44.14373" lon="3.12059">
        <ele>685</ele>
        <time>2020-10-03T08:52:04.000Z</time>
      </trkpt>
      <trkpt lat="44.14373" lon="3.12059">
        <ele>685</ele>
        <time>2020-10-03T08:52:06.000Z</time>
      </trkpt>
      <trkpt lat="44.14373" lon="3.12059">
        <ele>685</ele>
        <time>2020-10-03T08:52:08.000Z</time>
      </trkpt>
      <trkpt lat="44.14373" lon="3.12059">
        <ele>685</ele>
        <time>2020-10-03T08:52:10.000Z</time>
      </trkpt>
      <trkpt lat="44.14373" lon="3.12059">
        <ele>685.20001220703</ele>
        <time>2020-10-03T08:52:12.000Z</time>
      </trkpt>
      <trkpt lat="44.14373" lon="3.12059">
        <ele>685.20001220703</ele>
        <time>2020-10-03T08:52:14.000Z</time>
      </trkpt>
      <trkpt lat="44.14373" lon="3.12059">
        <ele>685.20001220703</ele>
        <time>2020-10-03T08:52:16.000Z</time>
      </trkpt>
      <trkpt lat="44.14373" lon="3.12058">
        <ele>685.20001220703</ele>
        <time>2020-10-03T08:52:18.000Z</time>
      </trkpt>
      <trkpt lat="44.14374" lon="3.12057">
        <ele>685.20001220703</ele>
        <time>2020-10-03T08:52:20.000Z</time>
      </trkpt>
      <trkpt lat="44.14375" lon="3.12056">
        <ele>685.20001220703</ele>
        <time>2020-10-03T08:52:22.000Z</time>
      </trkpt>
      <trkpt lat="44.14375" lon="3.12056">
        <ele>685.20001220703</ele>
        <time>2020-10-03T08:52:23.000Z</time>
      </trkpt>
      <trkpt lat="44.14376" lon="3.12055">
        <ele>685.20001220703</ele>
        <time>2020-10-03T08:52:24.000Z</time>
      </trkpt>
      <trkpt lat="44.14376" lon="3.12054">
        <ele>685.20001220703</ele>
        <time>2020-10-03T08:52:26.000Z</time>
      </trkpt>
      <trkpt lat="44.14377" lon="3.12053">
        <ele>685</ele>
        <time>2020-10-03T08:52:28.000Z</time>
      </trkpt>
      <trkpt lat="44.14377" lon="3.12051">
        <ele>685</ele>
        <time>2020-10-03T08:52:30.000Z</time>
      </trkpt>
      <trkpt lat="44.14376" lon="3.1205">
        <ele>685</ele>
        <time>2020-10-03T08:52:32.000Z</time>
      </trkpt>
      <trkpt lat="44.14377" lon="3.1205">
        <ele>684.79998779297</ele>
        <time>2020-10-03T08:52:34.000Z</time>
      </trkpt>
      <trkpt lat="44.14377" lon="3.12049">
        <ele>684.59997558594</ele>
        <time>2020-10-03T08:52:36.000Z</time>
      </trkpt>
      <trkpt lat="44.14378" lon="3.12049">
        <ele>684.59997558594</ele>
        <time>2020-10-03T08:52:38.000Z</time>
      </trkpt>
      <trkpt lat="44.14378" lon="3.12049">
        <ele>684.59997558594</ele>
        <time>2020-10-03T08:52:39.000Z</time>
      </trkpt>
      <trkpt lat="44.14378" lon="3.12049">
        <ele>684.59997558594</ele>
        <time>2020-10-03T08:52:40.000Z</time>
      </trkpt>
      <trkpt lat="44.14378" lon="3.12048">
        <ele>684.59997558594</ele>
        <time>2020-10-03T08:52:42.000Z</time>
      </trkpt>
      <trkpt lat="44.14379" lon="3.12048">
        <ele>684.59997558594</ele>
        <time>2020-10-03T08:52:44.000Z</time>
      </trkpt>
      <trkpt lat="44.14379" lon="3.12047">
        <ele>684.59997558594</ele>
        <time>2020-10-03T08:52:46.000Z</time>
      </trkpt>
      <trkpt lat="44.14379" lon="3.12047">
        <ele>684.59997558594</ele>
        <time>2020-10-03T08:52:48.000Z</time>
      </trkpt>
      <trkpt lat="44.14379" lon="3.12047">
        <ele>684.59997558594</ele>
        <time>2020-10-03T08:52:50.000Z</time>
      </trkpt>
      <trkpt lat="44.14379" lon="3.12047">
        <ele>684.59997558594</ele>
        <time>2020-10-03T08:52:52.000Z</time>
      </trkpt>
      <trkpt lat="44.14379" lon="3.12047">
        <ele>684.59997558594</ele>
        <time>2020-10-03T08:52:54.000Z</time>
      </trkpt>
      <trkpt lat="44.14379" lon="3.12046">
        <ele>684.59997558594</ele>
        <time>2020-10-03T08:52:56.000Z</time>
      </trkpt>
      <trkpt lat="44.1438" lon="3.12046">
        <ele>684.59997558594</ele>
        <time>2020-10-03T08:52:58.000Z</time>
      </trkpt>
      <trkpt lat="44.1438" lon="3.12046">
        <ele>684.40002441406</ele>
        <time>2020-10-03T08:53:00.000Z</time>
      </trkpt>
      <trkpt lat="44.1438" lon="3.12046">
        <ele>684.40002441406</ele>
        <time>2020-10-03T08:53:02.000Z</time>
      </trkpt>
      <trkpt lat="44.1438" lon="3.12046">
        <ele>684.40002441406</ele>
        <time>2020-10-03T08:53:04.000Z</time>
      </trkpt>
      <trkpt lat="44.1438" lon="3.12046">
        <ele>684</ele>
        <time>2020-10-03T08:53:06.000Z</time>
      </trkpt>
      <trkpt lat="44.1438" lon="3.12046">
        <ele>683.79998779297</ele>
        <time>2020-10-03T08:53:08.000Z</time>
      </trkpt>
      <trkpt lat="44.1438" lon="3.12046">
        <ele>683.40002441406</ele>
        <time>2020-10-03T08:53:10.000Z</time>
      </trkpt>
      <trkpt lat="44.1438" lon="3.12046">
        <ele>683</ele>
        <time>2020-10-03T08:53:11.000Z</time>
      </trkpt>
      <trkpt lat="44.1438" lon="3.12046">
        <ele>683</ele>
        <time>2020-10-03T08:53:12.000Z</time>
      </trkpt>
      <trkpt lat="44.14381" lon="3.12046">
        <ele>682.79998779297</ele>
        <time>2020-10-03T08:53:14.000Z</time>
      </trkpt>
      <trkpt lat="44.14381" lon="3.12046">
        <ele>682.59997558594</ele>
        <time>2020-10-03T08:53:16.000Z</time>
      </trkpt>
      <trkpt lat="44.14381" lon="3.12046">
        <ele>682.59997558594</ele>
        <time>2020-10-03T08:53:18.000Z</time>
      </trkpt>
      <trkpt lat="44.14381" lon="3.12046">
        <ele>682.59997558594</ele>
        <time>2020-10-03T08:53:20.000Z</time>
      </trkpt>
      <trkpt lat="44.14382" lon="3.12046">
        <ele>682.59997558594</ele>
        <time>2020-10-03T08:53:22.000Z</time>
      </trkpt>
      <trkpt lat="44.14382" lon="3.12046">
        <ele>682.59997558594</ele>
        <time>2020-10-03T08:53:24.000Z</time>
      </trkpt>
      <trkpt lat="44.14382" lon="3.12046">
        <ele>682.79998779297</ele>
        <time>2020-10-03T08:53:26.000Z</time>
      </trkpt>
      <trkpt lat="44.14382" lon="3.12046">
        <ele>683</ele>
        <time>2020-10-03T08:53:28.000Z</time>
      </trkpt>
      <trkpt lat="44.14382" lon="3.12046">
        <ele>683.20001220703</ele>
        <time>2020-10-03T08:53:30.000Z</time>
      </trkpt>
      <trkpt lat="44.14383" lon="3.12046">
        <ele>683.40002441406</ele>
        <time>2020-10-03T08:53:32.000Z</time>
      </trkpt>
      <trkpt lat="44.14383" lon="3.12046">
        <ele>683.40002441406</ele>
        <time>2020-10-03T08:53:34.000Z</time>
      </trkpt>
      <trkpt lat="44.14384" lon="3.12046">
        <ele>683.40002441406</ele>
        <time>2020-10-03T08:53:36.000Z</time>
      </trkpt>
      <trkpt lat="44.14384" lon="3.12046">
        <ele>683.40002441406</ele>
        <time>2020-10-03T08:53:38.000Z</time>
      </trkpt>
      <trkpt lat="44.14385" lon="3.12046">
        <ele>683.59997558594</ele>
        <time>2020-10-03T08:53:40.000Z</time>
      </trkpt>
      <trkpt lat="44.14385" lon="3.12046">
        <ele>683.79998779297</ele>
        <time>2020-10-03T08:53:42.000Z</time>
      </trkpt>
      <trkpt lat="44.14385" lon="3.12046">
        <ele>684</ele>
        <time>2020-10-03T08:53:44.000Z</time>
      </trkpt>
      <trkpt lat="44.14385" lon="3.12045">
        <ele>684.20001220703</ele>
        <time>2020-10-03T08:53:46.000Z</time>
      </trkpt>
      <trkpt lat="44.14385" lon="3.12044">
        <ele>684</ele>
        <time>2020-10-03T08:53:48.000Z</time>
      </trkpt>
      <trkpt lat="44.14385" lon="3.12044">
        <ele>684</ele>
        <time>2020-10-03T08:53:50.000Z</time>
      </trkpt>
      <trkpt lat="44.14385" lon="3.12044">
        <ele>684</ele>
        <time>2020-10-03T08:53:52.000Z</time>
      </trkpt>
      <trkpt lat="44.14385" lon="3.12044">
        <ele>684</ele>
        <time>2020-10-03T08:53:54.000Z</time>
      </trkpt>
      <trkpt lat="44.14385" lon="3.12044">
        <ele>684</ele>
        <time>2020-10-03T08:53:55.000Z</time>
      </trkpt>
      <trkpt lat="44.14385" lon="3.12044">
        <ele>684</ele>
        <time>2020-10-03T08:53:56.000Z</time>
      </trkpt>
      <trkpt lat="44.14385" lon="3.12044">
        <ele>684</ele>
        <time>2020-10-03T08:53:58.000Z</time>
      </trkpt>
      <trkpt lat="44.14386" lon="3.12044">
        <ele>684</ele>
        <time>2020-10-03T08:54:00.000Z</time>
      </trkpt>
      <trkpt lat="44.14386" lon="3.12044">
        <ele>684</ele>
        <time>2020-10-03T08:54:02.000Z</time>
      </trkpt>
      <trkpt lat="44.14386" lon="3.12044">
        <ele>684</ele>
        <time>2020-10-03T08:54:04.000Z</time>
      </trkpt>
      <trkpt lat="44.14386" lon="3.12044">
        <ele>684.20001220703</ele>
        <time>2020-10-03T08:54:06.000Z</time>
      </trkpt>
      <trkpt lat="44.14386" lon="3.12044">
        <ele>684.20001220703</ele>
        <time>2020-10-03T08:54:08.000Z</time>
      </trkpt>
      <trkpt lat="44.14386" lon="3.12043">
        <ele>684.20001220703</ele>
        <time>2020-10-03T08:54:10.000Z</time>
      </trkpt>
      <trkpt lat="44.14386" lon="3.12043">
        <ele>684.20001220703</ele>
        <time>2020-10-03T08:54:12.000Z</time>
      </trkpt>
      <trkpt lat="44.14386" lon="3.12043">
        <ele>684</ele>
        <time>2020-10-03T08:54:14.000Z</time>
      </trkpt>
      <trkpt lat="44.14386" lon="3.12043">
        <ele>684</ele>
        <time>2020-10-03T08:54:16.000Z</time>
      </trkpt>
      <trkpt lat="44.14386" lon="3.12043">
        <ele>684</ele>
        <time>2020-10-03T08:54:18.000Z</time>
      </trkpt>
      <trkpt lat="44.14386" lon="3.12042">
        <ele>684</ele>
        <time>2020-10-03T08:54:20.000Z</time>
      </trkpt>
      <trkpt lat="44.14386" lon="3.12042">
        <ele>684</ele>
        <time>2020-10-03T08:54:22.000Z</time>
      </trkpt>
      <trkpt lat="44.14387" lon="3.12042">
        <ele>684</ele>
        <time>2020-10-03T08:54:24.000Z</time>
      </trkpt>
      <trkpt lat="44.14387" lon="3.12042">
        <ele>684</ele>
        <time>2020-10-03T08:54:26.000Z</time>
      </trkpt>
      <trkpt lat="44.14387" lon="3.12042">
        <ele>684</ele>
        <time>2020-10-03T08:54:28.000Z</time>
      </trkpt>
      <trkpt lat="44.14387" lon="3.12042">
        <ele>684</ele>
        <time>2020-10-03T08:54:30.000Z</time>
      </trkpt>
      <trkpt lat="44.14387" lon="3.12042">
        <ele>684</ele>
        <time>2020-10-03T08:54:32.000Z</time>
      </trkpt>
      <trkpt lat="44.14387" lon="3.12042">
        <ele>684</ele>
        <time>2020-10-03T08:54:34.000Z</time>
      </trkpt>
      <trkpt lat="44.14388" lon="3.12042">
        <ele>684</ele>
        <time>2020-10-03T08:54:35.000Z</time>
      </trkpt>
      <trkpt lat="44.14388" lon="3.12042">
        <ele>684</ele>
        <time>2020-10-03T08:54:36.000Z</time>
      </trkpt>
      <trkpt lat="44.14388" lon="3.12043">
        <ele>683.79998779297</ele>
        <time>2020-10-03T08:54:38.000Z</time>
      </trkpt>
      <trkpt lat="44.14388" lon="3.12042">
        <ele>684</ele>
        <time>2020-10-03T08:54:40.000Z</time>
      </trkpt>
      <trkpt lat="44.14388" lon="3.12042">
        <ele>684</ele>
        <time>2020-10-03T08:54:42.000Z</time>
      </trkpt>
      <trkpt lat="44.14388" lon="3.12042">
        <ele>684.20001220703</ele>
        <time>2020-10-03T08:54:44.000Z</time>
      </trkpt>
      <trkpt lat="44.14388" lon="3.12043">
        <ele>684.20001220703</ele>
        <time>2020-10-03T08:54:46.000Z</time>
      </trkpt>
      <trkpt lat="44.14388" lon="3.12043">
        <ele>684.40002441406</ele>
        <time>2020-10-03T08:54:48.000Z</time>
      </trkpt>
      <trkpt lat="44.14388" lon="3.12042">
        <ele>684.40002441406</ele>
        <time>2020-10-03T08:54:50.000Z</time>
      </trkpt>
      <trkpt lat="44.14389" lon="3.12038">
        <ele>684.40002441406</ele>
        <time>2020-10-03T08:54:52.000Z</time>
      </trkpt>
      <trkpt lat="44.14389" lon="3.12036">
        <ele>684.40002441406</ele>
        <time>2020-10-03T08:54:53.000Z</time>
      </trkpt>
      <trkpt lat="44.14388" lon="3.12032">
        <ele>684.40002441406</ele>
        <time>2020-10-03T08:54:54.000Z</time>
      </trkpt>
      <trkpt lat="44.14386" lon="3.12022">
        <ele>684.40002441406</ele>
        <time>2020-10-03T08:54:56.000Z</time>
      </trkpt>
      <trkpt lat="44.14385" lon="3.12017">
        <ele>684.40002441406</ele>
        <time>2020-10-03T08:54:57.000Z</time>
      </trkpt>
      <trkpt lat="44.14384" lon="3.12011">
        <ele>684.40002441406</ele>
        <time>2020-10-03T08:54:58.000Z</time>
      </trkpt>
      <trkpt lat="44.14383" lon="3.12005">
        <ele>684.20001220703</ele>
        <time>2020-10-03T08:54:59.000Z</time>
      </trkpt>
      <trkpt lat="44.14382" lon="3.11999">
        <ele>684</ele>
        <time>2020-10-03T08:55:00.000Z</time>
      </trkpt>
      <trkpt lat="44.14383" lon="3.11984">
        <ele>682</ele>
        <time>2020-10-03T08:55:02.000Z</time>
      </trkpt>
      <trkpt lat="44.14384" lon="3.1197">
        <ele>681</ele>
        <time>2020-10-03T08:55:04.000Z</time>
      </trkpt>
      <trkpt lat="44.14387" lon="3.11957">
        <ele>680.20001220703</ele>
        <time>2020-10-03T08:55:06.000Z</time>
      </trkpt>
      <trkpt lat="44.14389" lon="3.11951">
        <ele>679.59997558594</ele>
        <time>2020-10-03T08:55:07.000Z</time>
      </trkpt>
      <trkpt lat="44.1439" lon="3.11945">
        <ele>678.59997558594</ele>
        <time>2020-10-03T08:55:08.000Z</time>
      </trkpt>
      <trkpt lat="44.14391" lon="3.1194">
        <ele>677.59997558594</ele>
        <time>2020-10-03T08:55:09.000Z</time>
      </trkpt>
      <trkpt lat="44.14392" lon="3.11935">
        <ele>676.79998779297</ele>
        <time>2020-10-03T08:55:10.000Z</time>
      </trkpt>
      <trkpt lat="44.14393" lon="3.1193">
        <ele>676</ele>
        <time>2020-10-03T08:55:11.000Z</time>
      </trkpt>
      <trkpt lat="44.14394" lon="3.11924">
        <ele>675.20001220703</ele>
        <time>2020-10-03T08:55:12.000Z</time>
      </trkpt>
      <trkpt lat="44.14396" lon="3.11919">
        <ele>673.59997558594</ele>
        <time>2020-10-03T08:55:13.000Z</time>
      </trkpt>
      <trkpt lat="44.14398" lon="3.11915">
        <ele>672.59997558594</ele>
        <time>2020-10-03T08:55:14.000Z</time>
      </trkpt>
      <trkpt lat="44.144" lon="3.11911">
        <ele>671.79998779297</ele>
        <time>2020-10-03T08:55:15.000Z</time>
      </trkpt>
      <trkpt lat="44.14401" lon="3.11908">
        <ele>671</ele>
        <time>2020-10-03T08:55:16.000Z</time>
      </trkpt>
      <trkpt lat="44.14401" lon="3.11904">
        <ele>670</ele>
        <time>2020-10-03T08:55:17.000Z</time>
      </trkpt>
      <trkpt lat="44.14401" lon="3.11901">
        <ele>669</ele>
        <time>2020-10-03T08:55:18.000Z</time>
      </trkpt>
      <trkpt lat="44.144" lon="3.11897">
        <ele>667.79998779297</ele>
        <time>2020-10-03T08:55:19.000Z</time>
      </trkpt>
      <trkpt lat="44.14398" lon="3.11894">
        <ele>666.79998779297</ele>
        <time>2020-10-03T08:55:20.000Z</time>
      </trkpt>
      <trkpt lat="44.14394" lon="3.11888">
        <ele>665.59997558594</ele>
        <time>2020-10-03T08:55:22.000Z</time>
      </trkpt>
      <trkpt lat="44.14391" lon="3.11885">
        <ele>664.59997558594</ele>
        <time>2020-10-03T08:55:24.000Z</time>
      </trkpt>
      <trkpt lat="44.14389" lon="3.11885">
        <ele>664.20001220703</ele>
        <time>2020-10-03T08:55:25.000Z</time>
      </trkpt>
      <trkpt lat="44.14387" lon="3.11887">
        <ele>663.40002441406</ele>
        <time>2020-10-03T08:55:26.000Z</time>
      </trkpt>
      <trkpt lat="44.14384" lon="3.11889">
        <ele>662.79998779297</ele>
        <time>2020-10-03T08:55:27.000Z</time>
      </trkpt>
      <trkpt lat="44.14382" lon="3.11891">
        <ele>662.20001220703</ele>
        <time>2020-10-03T08:55:28.000Z</time>
      </trkpt>
      <trkpt lat="44.14379" lon="3.11893">
        <ele>661.59997558594</ele>
        <time>2020-10-03T08:55:29.000Z</time>
      </trkpt>
      <trkpt lat="44.14376" lon="3.11893">
        <ele>660.79998779297</ele>
        <time>2020-10-03T08:55:30.000Z</time>
      </trkpt>
      <trkpt lat="44.14374" lon="3.11892">
        <ele>660.40002441406</ele>
        <time>2020-10-03T08:55:31.000Z</time>
      </trkpt>
      <trkpt lat="44.14372" lon="3.11889">
        <ele>659.79998779297</ele>
        <time>2020-10-03T08:55:32.000Z</time>
      </trkpt>
      <trkpt lat="44.14369" lon="3.11885">
        <ele>659.20001220703</ele>
        <time>2020-10-03T08:55:33.000Z</time>
      </trkpt>
      <trkpt lat="44.14367" lon="3.11882">
        <ele>658.59997558594</ele>
        <time>2020-10-03T08:55:34.000Z</time>
      </trkpt>
      <trkpt lat="44.14364" lon="3.11878">
        <ele>657.20001220703</ele>
        <time>2020-10-03T08:55:35.000Z</time>
      </trkpt>
      <trkpt lat="44.1436" lon="3.11874">
        <ele>656.20001220703</ele>
        <time>2020-10-03T08:55:36.000Z</time>
      </trkpt>
      <trkpt lat="44.14357" lon="3.1187">
        <ele>655.40002441406</ele>
        <time>2020-10-03T08:55:37.000Z</time>
      </trkpt>
      <trkpt lat="44.14353" lon="3.11865">
        <ele>654.59997558594</ele>
        <time>2020-10-03T08:55:38.000Z</time>
      </trkpt>
      <trkpt lat="44.14344" lon="3.11856">
        <ele>653</ele>
        <time>2020-10-03T08:55:40.000Z</time>
      </trkpt>
      <trkpt lat="44.14339" lon="3.11853">
        <ele>652</ele>
        <time>2020-10-03T08:55:41.000Z</time>
      </trkpt>
      <trkpt lat="44.14333" lon="3.11849">
        <ele>649.59997558594</ele>
        <time>2020-10-03T08:55:42.000Z</time>
      </trkpt>
      <trkpt lat="44.14329" lon="3.11846">
        <ele>648.40002441406</ele>
        <time>2020-10-03T08:55:43.000Z</time>
      </trkpt>
      <trkpt lat="44.14326" lon="3.11842">
        <ele>647.20001220703</ele>
        <time>2020-10-03T08:55:44.000Z</time>
      </trkpt>
      <trkpt lat="44.14323" lon="3.11839">
        <ele>646.20001220703</ele>
        <time>2020-10-03T08:55:45.000Z</time>
      </trkpt>
      <trkpt lat="44.1432" lon="3.11836">
        <ele>645</ele>
        <time>2020-10-03T08:55:46.000Z</time>
      </trkpt>
      <trkpt lat="44.14316" lon="3.11832">
        <ele>643.59997558594</ele>
        <time>2020-10-03T08:55:47.000Z</time>
      </trkpt>
      <trkpt lat="44.14312" lon="3.11829">
        <ele>642</ele>
        <time>2020-10-03T08:55:48.000Z</time>
      </trkpt>
      <trkpt lat="44.14308" lon="3.11824">
        <ele>640.40002441406</ele>
        <time>2020-10-03T08:55:49.000Z</time>
      </trkpt>
      <trkpt lat="44.14304" lon="3.11818">
        <ele>638.79998779297</ele>
        <time>2020-10-03T08:55:50.000Z</time>
      </trkpt>
      <trkpt lat="44.143" lon="3.11811">
        <ele>637.40002441406</ele>
        <time>2020-10-03T08:55:51.000Z</time>
      </trkpt>
      <trkpt lat="44.14296" lon="3.11802">
        <ele>636.40002441406</ele>
        <time>2020-10-03T08:55:52.000Z</time>
      </trkpt>
      <trkpt lat="44.14292" lon="3.11792">
        <ele>635.79998779297</ele>
        <time>2020-10-03T08:55:53.000Z</time>
      </trkpt>
      <trkpt lat="44.14289" lon="3.11782">
        <ele>634.79998779297</ele>
        <time>2020-10-03T08:55:54.000Z</time>
      </trkpt>
      <trkpt lat="44.14286" lon="3.11773">
        <ele>633.40002441406</ele>
        <time>2020-10-03T08:55:55.000Z</time>
      </trkpt>
      <trkpt lat="44.14284" lon="3.11765">
        <ele>632</ele>
        <time>2020-10-03T08:55:56.000Z</time>
      </trkpt>
      <trkpt lat="44.14283" lon="3.11759">
        <ele>631</ele>
        <time>2020-10-03T08:55:57.000Z</time>
      </trkpt>
      <trkpt lat="44.14281" lon="3.11756">
        <ele>629.59997558594</ele>
        <time>2020-10-03T08:55:58.000Z</time>
      </trkpt>
      <trkpt lat="44.1428" lon="3.11755">
        <ele>628.40002441406</ele>
        <time>2020-10-03T08:55:59.000Z</time>
      </trkpt>
      <trkpt lat="44.14279" lon="3.11756">
        <ele>627.20001220703</ele>
        <time>2020-10-03T08:56:00.000Z</time>
      </trkpt>
      <trkpt lat="44.14278" lon="3.11758">
        <ele>626</ele>
        <time>2020-10-03T08:56:01.000Z</time>
      </trkpt>
      <trkpt lat="44.14277" lon="3.11762">
        <ele>624.79998779297</ele>
        <time>2020-10-03T08:56:02.000Z</time>
      </trkpt>
      <trkpt lat="44.14276" lon="3.11773">
        <ele>623.20001220703</ele>
        <time>2020-10-03T08:56:04.000Z</time>
      </trkpt>
      <trkpt lat="44.14275" lon="3.11779">
        <ele>622.20001220703</ele>
        <time>2020-10-03T08:56:05.000Z</time>
      </trkpt>
      <trkpt lat="44.14274" lon="3.11784">
        <ele>621.40002441406</ele>
        <time>2020-10-03T08:56:06.000Z</time>
      </trkpt>
      <trkpt lat="44.1427" lon="3.11794">
        <ele>620.40002441406</ele>
        <time>2020-10-03T08:56:08.000Z</time>
      </trkpt>
      <trkpt lat="44.14268" lon="3.11803">
        <ele>618.20001220703</ele>
        <time>2020-10-03T08:56:10.000Z</time>
      </trkpt>
      <trkpt lat="44.14268" lon="3.11808">
        <ele>615.79998779297</ele>
        <time>2020-10-03T08:56:11.000Z</time>
      </trkpt>
      <trkpt lat="44.14267" lon="3.11813">
        <ele>614.59997558594</ele>
        <time>2020-10-03T08:56:12.000Z</time>
      </trkpt>
      <trkpt lat="44.14266" lon="3.11826">
        <ele>612.59997558594</ele>
        <time>2020-10-03T08:56:14.000Z</time>
      </trkpt>
      <trkpt lat="44.14266" lon="3.11833">
        <ele>611.79998779297</ele>
        <time>2020-10-03T08:56:15.000Z</time>
      </trkpt>
      <trkpt lat="44.14267" lon="3.1184">
        <ele>610.59997558594</ele>
        <time>2020-10-03T08:56:16.000Z</time>
      </trkpt>
      <trkpt lat="44.14267" lon="3.11853">
        <ele>608.79998779297</ele>
        <time>2020-10-03T08:56:18.000Z</time>
      </trkpt>
      <trkpt lat="44.14268" lon="3.11867">
        <ele>606.79998779297</ele>
        <time>2020-10-03T08:56:20.000Z</time>
      </trkpt>
      <trkpt lat="44.14269" lon="3.11874">
        <ele>605.59997558594</ele>
        <time>2020-10-03T08:56:21.000Z</time>
      </trkpt>
      <trkpt lat="44.14269" lon="3.11879">
        <ele>604</ele>
        <time>2020-10-03T08:56:22.000Z</time>
      </trkpt>
      <trkpt lat="44.14269" lon="3.11884">
        <ele>602.79998779297</ele>
        <time>2020-10-03T08:56:23.000Z</time>
      </trkpt>
      <trkpt lat="44.14268" lon="3.11888">
        <ele>601.59997558594</ele>
        <time>2020-10-03T08:56:24.000Z</time>
      </trkpt>
      <trkpt lat="44.14265" lon="3.11892">
        <ele>600.20001220703</ele>
        <time>2020-10-03T08:56:25.000Z</time>
      </trkpt>
      <trkpt lat="44.14263" lon="3.11897">
        <ele>598.79998779297</ele>
        <time>2020-10-03T08:56:26.000Z</time>
      </trkpt>
      <trkpt lat="44.1426" lon="3.11902">
        <ele>597.20001220703</ele>
        <time>2020-10-03T08:56:27.000Z</time>
      </trkpt>
      <trkpt lat="44.14259" lon="3.11906">
        <ele>595.79998779297</ele>
        <time>2020-10-03T08:56:28.000Z</time>
      </trkpt>
      <trkpt lat="44.14258" lon="3.1191">
        <ele>594.40002441406</ele>
        <time>2020-10-03T08:56:29.000Z</time>
      </trkpt>
      <trkpt lat="44.14255" lon="3.11916">
        <ele>593.40002441406</ele>
        <time>2020-10-03T08:56:30.000Z</time>
      </trkpt>
      <trkpt lat="44.14252" lon="3.11919">
        <ele>592.40002441406</ele>
        <time>2020-10-03T08:56:31.000Z</time>
      </trkpt>
      <trkpt lat="44.14251" lon="3.11919">
        <ele>591.40002441406</ele>
        <time>2020-10-03T08:56:32.000Z</time>
      </trkpt>
      <trkpt lat="44.1425" lon="3.11917">
        <ele>590.20001220703</ele>
        <time>2020-10-03T08:56:33.000Z</time>
      </trkpt>
      <trkpt lat="44.14249" lon="3.11913">
        <ele>589</ele>
        <time>2020-10-03T08:56:34.000Z</time>
      </trkpt>
      <trkpt lat="44.14249" lon="3.11908">
        <ele>587.79998779297</ele>
        <time>2020-10-03T08:56:35.000Z</time>
      </trkpt>
      <trkpt lat="44.14247" lon="3.11901">
        <ele>586.40002441406</ele>
        <time>2020-10-03T08:56:36.000Z</time>
      </trkpt>
      <trkpt lat="44.14244" lon="3.11895">
        <ele>585.20001220703</ele>
        <time>2020-10-03T08:56:37.000Z</time>
      </trkpt>
      <trkpt lat="44.1424" lon="3.11889">
        <ele>584</ele>
        <time>2020-10-03T08:56:38.000Z</time>
      </trkpt>
      <trkpt lat="44.14236" lon="3.11883">
        <ele>582.59997558594</ele>
        <time>2020-10-03T08:56:39.000Z</time>
      </trkpt>
      <trkpt lat="44.14232" lon="3.11878">
        <ele>580.20001220703</ele>
        <time>2020-10-03T08:56:40.000Z</time>
      </trkpt>
      <trkpt lat="44.14228" lon="3.11868">
        <ele>578</ele>
        <time>2020-10-03T08:56:42.000Z</time>
      </trkpt>
      <trkpt lat="44.14226" lon="3.11865">
        <ele>577</ele>
        <time>2020-10-03T08:56:43.000Z</time>
      </trkpt>
      <trkpt lat="44.14224" lon="3.11862">
        <ele>576.40002441406</ele>
        <time>2020-10-03T08:56:44.000Z</time>
      </trkpt>
      <trkpt lat="44.14221" lon="3.1186">
        <ele>575.20001220703</ele>
        <time>2020-10-03T08:56:45.000Z</time>
      </trkpt>
      <trkpt lat="44.14217" lon="3.11858">
        <ele>574.20001220703</ele>
        <time>2020-10-03T08:56:46.000Z</time>
      </trkpt>
      <trkpt lat="44.14213" lon="3.11854">
        <ele>573.20001220703</ele>
        <time>2020-10-03T08:56:47.000Z</time>
      </trkpt>
      <trkpt lat="44.14211" lon="3.11851">
        <ele>572.20001220703</ele>
        <time>2020-10-03T08:56:48.000Z</time>
      </trkpt>
      <trkpt lat="44.14208" lon="3.11848">
        <ele>571</ele>
        <time>2020-10-03T08:56:49.000Z</time>
      </trkpt>
      <trkpt lat="44.14204" lon="3.11844">
        <ele>569.59997558594</ele>
        <time>2020-10-03T08:56:50.000Z</time>
      </trkpt>
      <trkpt lat="44.14199" lon="3.11839">
        <ele>568.59997558594</ele>
        <time>2020-10-03T08:56:51.000Z</time>
      </trkpt>
      <trkpt lat="44.14195" lon="3.11833">
        <ele>567.59997558594</ele>
        <time>2020-10-03T08:56:52.000Z</time>
      </trkpt>
      <trkpt lat="44.14189" lon="3.11821">
        <ele>566</ele>
        <time>2020-10-03T08:56:54.000Z</time>
      </trkpt>
      <trkpt lat="44.14185" lon="3.11816">
        <ele>565</ele>
        <time>2020-10-03T08:56:55.000Z</time>
      </trkpt>
      <trkpt lat="44.14182" lon="3.11812">
        <ele>564</ele>
        <time>2020-10-03T08:56:56.000Z</time>
      </trkpt>
      <trkpt lat="44.14179" lon="3.11808">
        <ele>563.40002441406</ele>
        <time>2020-10-03T08:56:57.000Z</time>
      </trkpt>
      <trkpt lat="44.14177" lon="3.11804">
        <ele>562.59997558594</ele>
        <time>2020-10-03T08:56:58.000Z</time>
      </trkpt>
      <trkpt lat="44.14175" lon="3.118">
        <ele>561.59997558594</ele>
        <time>2020-10-03T08:56:59.000Z</time>
      </trkpt>
      <trkpt lat="44.14174" lon="3.11797">
        <ele>561</ele>
        <time>2020-10-03T08:57:00.000Z</time>
      </trkpt>
      <trkpt lat="44.14174" lon="3.11794">
        <ele>560.20001220703</ele>
        <time>2020-10-03T08:57:01.000Z</time>
      </trkpt>
      <trkpt lat="44.14174" lon="3.11792">
        <ele>559.59997558594</ele>
        <time>2020-10-03T08:57:02.000Z</time>
      </trkpt>
      <trkpt lat="44.14173" lon="3.11789">
        <ele>558.59997558594</ele>
        <time>2020-10-03T08:57:03.000Z</time>
      </trkpt>
      <trkpt lat="44.14171" lon="3.11786">
        <ele>557.79998779297</ele>
        <time>2020-10-03T08:57:04.000Z</time>
      </trkpt>
      <trkpt lat="44.1417" lon="3.11782">
        <ele>556.79998779297</ele>
        <time>2020-10-03T08:57:05.000Z</time>
      </trkpt>
      <trkpt lat="44.14168" lon="3.11779">
        <ele>555.59997558594</ele>
        <time>2020-10-03T08:57:06.000Z</time>
      </trkpt>
      <trkpt lat="44.14164" lon="3.11773">
        <ele>554.40002441406</ele>
        <time>2020-10-03T08:57:08.000Z</time>
      </trkpt>
      <trkpt lat="44.14162" lon="3.1177">
        <ele>552.79998779297</ele>
        <time>2020-10-03T08:57:09.000Z</time>
      </trkpt>
      <trkpt lat="44.14158" lon="3.11768">
        <ele>552.20001220703</ele>
        <time>2020-10-03T08:57:10.000Z</time>
      </trkpt>
      <trkpt lat="44.14154" lon="3.11767">
        <ele>551.59997558594</ele>
        <time>2020-10-03T08:57:11.000Z</time>
      </trkpt>
      <trkpt lat="44.1415" lon="3.11766">
        <ele>551.40002441406</ele>
        <time>2020-10-03T08:57:12.000Z</time>
      </trkpt>
      <trkpt lat="44.1414" lon="3.11763">
        <ele>551</ele>
        <time>2020-10-03T08:57:14.000Z</time>
      </trkpt>
      <trkpt lat="44.14131" lon="3.1176">
        <ele>550.59997558594</ele>
        <time>2020-10-03T08:57:16.000Z</time>
      </trkpt>
      <trkpt lat="44.14123" lon="3.11755">
        <ele>549.20001220703</ele>
        <time>2020-10-03T08:57:18.000Z</time>
      </trkpt>
      <trkpt lat="44.14114" lon="3.1175">
        <ele>548</ele>
        <time>2020-10-03T08:57:20.000Z</time>
      </trkpt>
      <trkpt lat="44.14107" lon="3.11744">
        <ele>546.79998779297</ele>
        <time>2020-10-03T08:57:22.000Z</time>
      </trkpt>
      <trkpt lat="44.14101" lon="3.11735">
        <ele>545.79998779297</ele>
        <time>2020-10-03T08:57:24.000Z</time>
      </trkpt>
      <trkpt lat="44.14099" lon="3.11728">
        <ele>545.20001220703</ele>
        <time>2020-10-03T08:57:25.000Z</time>
      </trkpt>
      <trkpt lat="44.14098" lon="3.1172">
        <ele>544.20001220703</ele>
        <time>2020-10-03T08:57:26.000Z</time>
      </trkpt>
      <trkpt lat="44.14096" lon="3.11711">
        <ele>543.20001220703</ele>
        <time>2020-10-03T08:57:27.000Z</time>
      </trkpt>
      <trkpt lat="44.14095" lon="3.11701">
        <ele>542.20001220703</ele>
        <time>2020-10-03T08:57:28.000Z</time>
      </trkpt>
      <trkpt lat="44.14093" lon="3.11692">
        <ele>541.20001220703</ele>
        <time>2020-10-03T08:57:29.000Z</time>
      </trkpt>
      <trkpt lat="44.14092" lon="3.11681">
        <ele>540.40002441406</ele>
        <time>2020-10-03T08:57:30.000Z</time>
      </trkpt>
      <trkpt lat="44.1409" lon="3.11669">
        <ele>539.20001220703</ele>
        <time>2020-10-03T08:57:31.000Z</time>
      </trkpt>
      <trkpt lat="44.14088" lon="3.11657">
        <ele>538.20001220703</ele>
        <time>2020-10-03T08:57:32.000Z</time>
      </trkpt>
      <trkpt lat="44.14087" lon="3.11645">
        <ele>537.20001220703</ele>
        <time>2020-10-03T08:57:33.000Z</time>
      </trkpt>
      <trkpt lat="44.14085" lon="3.11634">
        <ele>536</ele>
        <time>2020-10-03T08:57:34.000Z</time>
      </trkpt>
      <trkpt lat="44.14082" lon="3.11611">
        <ele>534</ele>
        <time>2020-10-03T08:57:36.000Z</time>
      </trkpt>
      <trkpt lat="44.1408" lon="3.1159">
        <ele>531</ele>
        <time>2020-10-03T08:57:38.000Z</time>
      </trkpt>
      <trkpt lat="44.1408" lon="3.1158">
        <ele>530.20001220703</ele>
        <time>2020-10-03T08:57:39.000Z</time>
      </trkpt>
      <trkpt lat="44.14081" lon="3.1157">
        <ele>529</ele>
        <time>2020-10-03T08:57:40.000Z</time>
      </trkpt>
      <trkpt lat="44.14081" lon="3.1156">
        <ele>527.79998779297</ele>
        <time>2020-10-03T08:57:41.000Z</time>
      </trkpt>
      <trkpt lat="44.14081" lon="3.11549">
        <ele>526.40002441406</ele>
        <time>2020-10-03T08:57:42.000Z</time>
      </trkpt>
      <trkpt lat="44.1408" lon="3.1154">
        <ele>524.59997558594</ele>
        <time>2020-10-03T08:57:43.000Z</time>
      </trkpt>
      <trkpt lat="44.14079" lon="3.1153">
        <ele>523.40002441406</ele>
        <time>2020-10-03T08:57:44.000Z</time>
      </trkpt>
      <trkpt lat="44.14079" lon="3.11519">
        <ele>521.40002441406</ele>
        <time>2020-10-03T08:57:45.000Z</time>
      </trkpt>
      <trkpt lat="44.14079" lon="3.11509">
        <ele>519.40002441406</ele>
        <time>2020-10-03T08:57:46.000Z</time>
      </trkpt>
      <trkpt lat="44.1408" lon="3.11498">
        <ele>518.20001220703</ele>
        <time>2020-10-03T08:57:47.000Z</time>
      </trkpt>
      <trkpt lat="44.1408" lon="3.11488">
        <ele>516.79998779297</ele>
        <time>2020-10-03T08:57:48.000Z</time>
      </trkpt>
      <trkpt lat="44.1408" lon="3.11477">
        <ele>515.40002441406</ele>
        <time>2020-10-03T08:57:49.000Z</time>
      </trkpt>
      <trkpt lat="44.14079" lon="3.11467">
        <ele>513.59997558594</ele>
        <time>2020-10-03T08:57:50.000Z</time>
      </trkpt>
      <trkpt lat="44.14078" lon="3.11458">
        <ele>512.20001220703</ele>
        <time>2020-10-03T08:57:51.000Z</time>
      </trkpt>
      <trkpt lat="44.14078" lon="3.11451">
        <ele>510.20001220703</ele>
        <time>2020-10-03T08:57:52.000Z</time>
      </trkpt>
      <trkpt lat="44.14077" lon="3.11442">
        <ele>508.60000610352</ele>
        <time>2020-10-03T08:57:53.000Z</time>
      </trkpt>
      <trkpt lat="44.14077" lon="3.11435">
        <ele>506.79998779297</ele>
        <time>2020-10-03T08:57:54.000Z</time>
      </trkpt>
      <trkpt lat="44.14077" lon="3.11427">
        <ele>505.20001220703</ele>
        <time>2020-10-03T08:57:55.000Z</time>
      </trkpt>
      <trkpt lat="44.14076" lon="3.11421">
        <ele>503.60000610352</ele>
        <time>2020-10-03T08:57:56.000Z</time>
      </trkpt>
      <trkpt lat="44.14075" lon="3.11416">
        <ele>502.20001220703</ele>
        <time>2020-10-03T08:57:57.000Z</time>
      </trkpt>
      <trkpt lat="44.14074" lon="3.11413">
        <ele>500.79998779297</ele>
        <time>2020-10-03T08:57:58.000Z</time>
      </trkpt>
      <trkpt lat="44.14072" lon="3.11409">
        <ele>499.60000610352</ele>
        <time>2020-10-03T08:57:59.000Z</time>
      </trkpt>
      <trkpt lat="44.14071" lon="3.11406">
        <ele>498.79998779297</ele>
        <time>2020-10-03T08:58:00.000Z</time>
      </trkpt>
      <trkpt lat="44.1407" lon="3.11403">
        <ele>497.39999389648</ele>
        <time>2020-10-03T08:58:01.000Z</time>
      </trkpt>
      <trkpt lat="44.14069" lon="3.114">
        <ele>496.39999389648</ele>
        <time>2020-10-03T08:58:02.000Z</time>
      </trkpt>
      <trkpt lat="44.14069" lon="3.11396">
        <ele>495</ele>
        <time>2020-10-03T08:58:03.000Z</time>
      </trkpt>
      <trkpt lat="44.14068" lon="3.11394">
        <ele>493.79998779297</ele>
        <time>2020-10-03T08:58:04.000Z</time>
      </trkpt>
      <trkpt lat="44.14068" lon="3.11389">
        <ele>492.79998779297</ele>
        <time>2020-10-03T08:58:06.000Z</time>
      </trkpt>
      <trkpt lat="44.14067" lon="3.11386">
        <ele>492.60000610352</ele>
        <time>2020-10-03T08:58:08.000Z</time>
      </trkpt>
      <trkpt lat="44.14067" lon="3.11384">
        <ele>492.60000610352</ele>
        <time>2020-10-03T08:58:10.000Z</time>
      </trkpt>
      <trkpt lat="44.14065" lon="3.11379">
        <ele>492.60000610352</ele>
        <time>2020-10-03T08:58:12.000Z</time>
      </trkpt>
      <trkpt lat="44.14064" lon="3.11371">
        <ele>492.60000610352</ele>
        <time>2020-10-03T08:58:14.000Z</time>
      </trkpt>
      <trkpt lat="44.14065" lon="3.11361">
        <ele>492.60000610352</ele>
        <time>2020-10-03T08:58:16.000Z</time>
      </trkpt>
      <trkpt lat="44.14068" lon="3.11356">
        <ele>492.60000610352</ele>
        <time>2020-10-03T08:58:17.000Z</time>
      </trkpt>
      <trkpt lat="44.14071" lon="3.11353">
        <ele>492.60000610352</ele>
        <time>2020-10-03T08:58:18.000Z</time>
      </trkpt>
      <trkpt lat="44.14077" lon="3.11344">
        <ele>492.39999389648</ele>
        <time>2020-10-03T08:58:20.000Z</time>
      </trkpt>
      <trkpt lat="44.14079" lon="3.11339">
        <ele>492.20001220703</ele>
        <time>2020-10-03T08:58:21.000Z</time>
      </trkpt>
      <trkpt lat="44.14081" lon="3.11333">
        <ele>491.60000610352</ele>
        <time>2020-10-03T08:58:22.000Z</time>
      </trkpt>
      <trkpt lat="44.14085" lon="3.11322">
        <ele>489.60000610352</ele>
        <time>2020-10-03T08:58:24.000Z</time>
      </trkpt>
      <trkpt lat="44.14087" lon="3.11306">
        <ele>488.60000610352</ele>
        <time>2020-10-03T08:58:26.000Z</time>
      </trkpt>
      <trkpt lat="44.14087" lon="3.11298">
        <ele>487.20001220703</ele>
        <time>2020-10-03T08:58:27.000Z</time>
      </trkpt>
      <trkpt lat="44.14087" lon="3.11292">
        <ele>486</ele>
        <time>2020-10-03T08:58:28.000Z</time>
      </trkpt>
      <trkpt lat="44.14089" lon="3.11286">
        <ele>484.79998779297</ele>
        <time>2020-10-03T08:58:29.000Z</time>
      </trkpt>
      <trkpt lat="44.14089" lon="3.11282">
        <ele>484</ele>
        <time>2020-10-03T08:58:30.000Z</time>
      </trkpt>
      <trkpt lat="44.14089" lon="3.1128">
        <ele>483</ele>
        <time>2020-10-03T08:58:31.000Z</time>
      </trkpt>
      <trkpt lat="44.14089" lon="3.11278">
        <ele>482</ele>
        <time>2020-10-03T08:58:32.000Z</time>
      </trkpt>
      <trkpt lat="44.14089" lon="3.11276">
        <ele>481.20001220703</ele>
        <time>2020-10-03T08:58:33.000Z</time>
      </trkpt>
      <trkpt lat="44.14088" lon="3.11275">
        <ele>480.39999389648</ele>
        <time>2020-10-03T08:58:34.000Z</time>
      </trkpt>
      <trkpt lat="44.14087" lon="3.11273">
        <ele>479.39999389648</ele>
        <time>2020-10-03T08:58:35.000Z</time>
      </trkpt>
      <trkpt lat="44.14087" lon="3.11272">
        <ele>478.20001220703</ele>
        <time>2020-10-03T08:58:36.000Z</time>
      </trkpt>
      <trkpt lat="44.14085" lon="3.1127">
        <ele>477.20001220703</ele>
        <time>2020-10-03T08:58:38.000Z</time>
      </trkpt>
      <trkpt lat="44.14085" lon="3.11269">
        <ele>477.20001220703</ele>
        <time>2020-10-03T08:58:39.000Z</time>
      </trkpt>
      <trkpt lat="44.14084" lon="3.1127">
        <ele>477</ele>
        <time>2020-10-03T08:58:40.000Z</time>
      </trkpt>
      <trkpt lat="44.14083" lon="3.1127">
        <ele>476.79998779297</ele>
        <time>2020-10-03T08:58:42.000Z</time>
      </trkpt>
      <trkpt lat="44.14082" lon="3.11271">
        <ele>476.79998779297</ele>
        <time>2020-10-03T08:58:44.000Z</time>
      </trkpt>
      <trkpt lat="44.14081" lon="3.11271">
        <ele>476.60000610352</ele>
        <time>2020-10-03T08:58:46.000Z</time>
      </trkpt>
      <trkpt lat="44.14081" lon="3.11271">
        <ele>476.60000610352</ele>
        <time>2020-10-03T08:58:48.000Z</time>
      </trkpt>
      <trkpt lat="44.14081" lon="3.11271">
        <ele>476.60000610352</ele>
        <time>2020-10-03T08:58:50.000Z</time>
      </trkpt>
      <trkpt lat="44.14081" lon="3.11271">
        <ele>476.60000610352</ele>
        <time>2020-10-03T08:58:52.000Z</time>
      </trkpt>
      <trkpt lat="44.14081" lon="3.11271">
        <ele>476.60000610352</ele>
        <time>2020-10-03T08:58:54.000Z</time>
      </trkpt>
      <trkpt lat="44.14081" lon="3.11271">
        <ele>476.60000610352</ele>
        <time>2020-10-03T08:58:56.000Z</time>
      </trkpt>
      <trkpt lat="44.14081" lon="3.11271">
        <ele>476.60000610352</ele>
        <time>2020-10-03T08:58:58.000Z</time>
      </trkpt>
      <trkpt lat="44.14081" lon="3.11271">
        <ele>476.79998779297</ele>
        <time>2020-10-03T08:59:00.000Z</time>
      </trkpt>
      <trkpt lat="44.14081" lon="3.11271">
        <ele>476.79998779297</ele>
        <time>2020-10-03T08:59:02.000Z</time>
      </trkpt>
      <trkpt lat="44.14081" lon="3.11271">
        <ele>476.79998779297</ele>
        <time>2020-10-03T08:59:04.000Z</time>
      </trkpt>
      <trkpt lat="44.14081" lon="3.11271">
        <ele>476.60000610352</ele>
        <time>2020-10-03T08:59:06.000Z</time>
      </trkpt>
      <trkpt lat="44.14081" lon="3.11271">
        <ele>476.60000610352</ele>
        <time>2020-10-03T08:59:08.000Z</time>
      </trkpt>
      <trkpt lat="44.14081" lon="3.11271">
        <ele>476.60000610352</ele>
        <time>2020-10-03T08:59:10.000Z</time>
      </trkpt>
      <trkpt lat="44.14081" lon="3.11271">
        <ele>476.60000610352</ele>
        <time>2020-10-03T08:59:12.000Z</time>
      </trkpt>
      <trkpt lat="44.14081" lon="3.11272">
        <ele>476.60000610352</ele>
        <time>2020-10-03T08:59:14.000Z</time>
      </trkpt>
      <trkpt lat="44.14081" lon="3.11272">
        <ele>476.60000610352</ele>
        <time>2020-10-03T08:59:16.000Z</time>
      </trkpt>
      <trkpt lat="44.1408" lon="3.11272">
        <ele>476.60000610352</ele>
        <time>2020-10-03T08:59:18.000Z</time>
      </trkpt>
      <trkpt lat="44.14081" lon="3.11272">
        <ele>476.79998779297</ele>
        <time>2020-10-03T08:59:20.000Z</time>
      </trkpt>
      <trkpt lat="44.14081" lon="3.11271">
        <ele>476.79998779297</ele>
        <time>2020-10-03T08:59:22.000Z</time>
      </trkpt>
      <trkpt lat="44.1408" lon="3.11271">
        <ele>476.79998779297</ele>
        <time>2020-10-03T08:59:24.000Z</time>
      </trkpt>
      <trkpt lat="44.1408" lon="3.11271">
        <ele>476.79998779297</ele>
        <time>2020-10-03T08:59:26.000Z</time>
      </trkpt>
      <trkpt lat="44.14081" lon="3.11271">
        <ele>477</ele>
        <time>2020-10-03T08:59:28.000Z</time>
      </trkpt>
      <trkpt lat="44.14081" lon="3.11271">
        <ele>477</ele>
        <time>2020-10-03T08:59:30.000Z</time>
      </trkpt>
      <trkpt lat="44.14081" lon="3.11271">
        <ele>477</ele>
        <time>2020-10-03T08:59:32.000Z</time>
      </trkpt>
      <trkpt lat="44.1408" lon="3.11271">
        <ele>477</ele>
        <time>2020-10-03T08:59:34.000Z</time>
      </trkpt>
      <trkpt lat="44.14081" lon="3.11271">
        <ele>476.79998779297</ele>
        <time>2020-10-03T08:59:36.000Z</time>
      </trkpt>
      <trkpt lat="44.14081" lon="3.11271">
        <ele>476.79998779297</ele>
        <time>2020-10-03T08:59:38.000Z</time>
      </trkpt>
      <trkpt lat="44.14081" lon="3.11271">
        <ele>476.79998779297</ele>
        <time>2020-10-03T08:59:40.000Z</time>
      </trkpt>
      <trkpt lat="44.14081" lon="3.11271">
        <ele>476.79998779297</ele>
        <time>2020-10-03T08:59:42.000Z</time>
      </trkpt>
      <trkpt lat="44.14081" lon="3.11271">
        <ele>476.79998779297</ele>
        <time>2020-10-03T08:59:44.000Z</time>
      </trkpt>
      <trkpt lat="44.14081" lon="3.11271">
        <ele>476.79998779297</ele>
        <time>2020-10-03T08:59:46.000Z</time>
      </trkpt>
      <trkpt lat="44.14081" lon="3.11271">
        <ele>476.79998779297</ele>
        <time>2020-10-03T08:59:48.000Z</time>
      </trkpt>
      <trkpt lat="44.14081" lon="3.11271">
        <ele>476.79998779297</ele>
        <time>2020-10-03T08:59:50.000Z</time>
      </trkpt>
      <trkpt lat="44.14081" lon="3.11271">
        <ele>477</ele>
        <time>2020-10-03T08:59:52.000Z</time>
      </trkpt>
      <trkpt lat="44.14081" lon="3.1127">
        <ele>476.79998779297</ele>
        <time>2020-10-03T08:59:54.000Z</time>
      </trkpt>
      <trkpt lat="44.14081" lon="3.1127">
        <ele>476.79998779297</ele>
        <time>2020-10-03T08:59:56.000Z</time>
      </trkpt>
      <trkpt lat="44.14081" lon="3.1127">
        <ele>476.79998779297</ele>
        <time>2020-10-03T08:59:58.000Z</time>
      </trkpt>
      <trkpt lat="44.14082" lon="3.11269">
        <ele>477</ele>
        <time>2020-10-03T09:00:00.000Z</time>
      </trkpt>
      <trkpt lat="44.14082" lon="3.11269">
        <ele>477</ele>
        <time>2020-10-03T09:00:02.000Z</time>
      </trkpt>
      <trkpt lat="44.14082" lon="3.11269">
        <ele>476.79998779297</ele>
        <time>2020-10-03T09:00:04.000Z</time>
      </trkpt>
      <trkpt lat="44.14083" lon="3.11269">
        <ele>476.79998779297</ele>
        <time>2020-10-03T09:00:06.000Z</time>
      </trkpt>
      <trkpt lat="44.14083" lon="3.11269">
        <ele>476.79998779297</ele>
        <time>2020-10-03T09:00:08.000Z</time>
      </trkpt>
      <trkpt lat="44.14083" lon="3.11269">
        <ele>477</ele>
        <time>2020-10-03T09:00:10.000Z</time>
      </trkpt>
      <trkpt lat="44.14083" lon="3.11269">
        <ele>477</ele>
        <time>2020-10-03T09:00:12.000Z</time>
      </trkpt>
      <trkpt lat="44.14083" lon="3.11269">
        <ele>477.20001220703</ele>
        <time>2020-10-03T09:00:14.000Z</time>
      </trkpt>
      <trkpt lat="44.14083" lon="3.11269">
        <ele>477.20001220703</ele>
        <time>2020-10-03T09:00:16.000Z</time>
      </trkpt>
      <trkpt lat="44.14084" lon="3.11269">
        <ele>477</ele>
        <time>2020-10-03T09:00:18.000Z</time>
      </trkpt>
      <trkpt lat="44.14084" lon="3.11268">
        <ele>477.20001220703</ele>
        <time>2020-10-03T09:00:19.000Z</time>
      </trkpt>
      <trkpt lat="44.14088" lon="3.11268">
        <ele>477.20001220703</ele>
        <time>2020-10-03T09:00:20.000Z</time>
      </trkpt>
      <trkpt lat="44.1409" lon="3.11267">
        <ele>477.20001220703</ele>
        <time>2020-10-03T09:00:22.000Z</time>
      </trkpt>
      <trkpt lat="44.14092" lon="3.11265">
        <ele>477.20001220703</ele>
        <time>2020-10-03T09:00:24.000Z</time>
      </trkpt>
      <trkpt lat="44.14094" lon="3.11264">
        <ele>477.20001220703</ele>
        <time>2020-10-03T09:00:26.000Z</time>
      </trkpt>
      <trkpt lat="44.14095" lon="3.11264">
        <ele>477.20001220703</ele>
        <time>2020-10-03T09:00:28.000Z</time>
      </trkpt>
      <trkpt lat="44.14095" lon="3.11264">
        <ele>477.20001220703</ele>
        <time>2020-10-03T09:00:30.000Z</time>
      </trkpt>
      <trkpt lat="44.14094" lon="3.11264">
        <ele>477.20001220703</ele>
        <time>2020-10-03T09:00:32.000Z</time>
      </trkpt>
      <trkpt lat="44.14095" lon="3.11264">
        <ele>477.20001220703</ele>
        <time>2020-10-03T09:00:34.000Z</time>
      </trkpt>
      <trkpt lat="44.14094" lon="3.11263">
        <ele>477</ele>
        <time>2020-10-03T09:00:36.000Z</time>
      </trkpt>
      <trkpt lat="44.14093" lon="3.11263">
        <ele>477</ele>
        <time>2020-10-03T09:00:38.000Z</time>
      </trkpt>
      <trkpt lat="44.14093" lon="3.11263">
        <ele>477</ele>
        <time>2020-10-03T09:00:39.000Z</time>
      </trkpt>
      <trkpt lat="44.14093" lon="3.11263">
        <ele>477</ele>
        <time>2020-10-03T09:00:40.000Z</time>
      </trkpt>
      <trkpt lat="44.14092" lon="3.11264">
        <ele>477</ele>
        <time>2020-10-03T09:00:42.000Z</time>
      </trkpt>
      <trkpt lat="44.14092" lon="3.11264">
        <ele>477</ele>
        <time>2020-10-03T09:00:44.000Z</time>
      </trkpt>
      <trkpt lat="44.14092" lon="3.11264">
        <ele>477</ele>
        <time>2020-10-03T09:00:46.000Z</time>
      </trkpt>
      <trkpt lat="44.14091" lon="3.11265">
        <ele>476.79998779297</ele>
        <time>2020-10-03T09:00:48.000Z</time>
      </trkpt>
      <trkpt lat="44.1409" lon="3.11266">
        <ele>476.79998779297</ele>
        <time>2020-10-03T09:00:50.000Z</time>
      </trkpt>
      <trkpt lat="44.14088" lon="3.11267">
        <ele>477</ele>
        <time>2020-10-03T09:00:52.000Z</time>
      </trkpt>
      <trkpt lat="44.14089" lon="3.11265">
        <ele>477</ele>
        <time>2020-10-03T09:00:54.000Z</time>
      </trkpt>
      <trkpt lat="44.14091" lon="3.11262">
        <ele>477</ele>
        <time>2020-10-03T09:00:55.000Z</time>
      </trkpt>
      <trkpt lat="44.14093" lon="3.11259">
        <ele>477</ele>
        <time>2020-10-03T09:00:56.000Z</time>
      </trkpt>
      <trkpt lat="44.14097" lon="3.1125">
        <ele>477</ele>
        <time>2020-10-03T09:00:58.000Z</time>
      </trkpt>
      <trkpt lat="44.14103" lon="3.11239">
        <ele>477</ele>
        <time>2020-10-03T09:01:00.000Z</time>
      </trkpt>
      <trkpt lat="44.14107" lon="3.11232">
        <ele>477</ele>
        <time>2020-10-03T09:01:01.000Z</time>
      </trkpt>
      <trkpt lat="44.1411" lon="3.11222">
        <ele>477</ele>
        <time>2020-10-03T09:01:02.000Z</time>
      </trkpt>
      <trkpt lat="44.14116" lon="3.112">
        <ele>476.20001220703</ele>
        <time>2020-10-03T09:01:04.000Z</time>
      </trkpt>
      <trkpt lat="44.14118" lon="3.1119">
        <ele>475.79998779297</ele>
        <time>2020-10-03T09:01:05.000Z</time>
      </trkpt>
      <trkpt lat="44.1412" lon="3.11181">
        <ele>475.20001220703</ele>
        <time>2020-10-03T09:01:06.000Z</time>
      </trkpt>
      <trkpt lat="44.14123" lon="3.11162">
        <ele>473.60000610352</ele>
        <time>2020-10-03T09:01:08.000Z</time>
      </trkpt>
      <trkpt lat="44.14124" lon="3.11145">
        <ele>471.60000610352</ele>
        <time>2020-10-03T09:01:10.000Z</time>
      </trkpt>
      <trkpt lat="44.14124" lon="3.11137">
        <ele>470.20001220703</ele>
        <time>2020-10-03T09:01:11.000Z</time>
      </trkpt>
      <trkpt lat="44.14125" lon="3.11129">
        <ele>469</ele>
        <time>2020-10-03T09:01:12.000Z</time>
      </trkpt>
      <trkpt lat="44.14127" lon="3.11122">
        <ele>468</ele>
        <time>2020-10-03T09:01:13.000Z</time>
      </trkpt>
      <trkpt lat="44.1413" lon="3.11115">
        <ele>466.79998779297</ele>
        <time>2020-10-03T09:01:14.000Z</time>
      </trkpt>
      <trkpt lat="44.14136" lon="3.11099">
        <ele>465</ele>
        <time>2020-10-03T09:01:16.000Z</time>
      </trkpt>
      <trkpt lat="44.14142" lon="3.11078">
        <ele>463.20001220703</ele>
        <time>2020-10-03T09:01:18.000Z</time>
      </trkpt>
      <trkpt lat="44.14149" lon="3.11053">
        <ele>462</ele>
        <time>2020-10-03T09:01:20.000Z</time>
      </trkpt>
      <trkpt lat="44.14156" lon="3.11024">
        <ele>460.39999389648</ele>
        <time>2020-10-03T09:01:22.000Z</time>
      </trkpt>
      <trkpt lat="44.14159" lon="3.11008">
        <ele>459.39999389648</ele>
        <time>2020-10-03T09:01:23.000Z</time>
      </trkpt>
      <trkpt lat="44.14161" lon="3.10991">
        <ele>458.60000610352</ele>
        <time>2020-10-03T09:01:24.000Z</time>
      </trkpt>
      <trkpt lat="44.14163" lon="3.10974">
        <ele>457.60000610352</ele>
        <time>2020-10-03T09:01:25.000Z</time>
      </trkpt>
      <trkpt lat="44.14164" lon="3.10957">
        <ele>456.39999389648</ele>
        <time>2020-10-03T09:01:26.000Z</time>
      </trkpt>
      <trkpt lat="44.14165" lon="3.1094">
        <ele>455.39999389648</ele>
        <time>2020-10-03T09:01:27.000Z</time>
      </trkpt>
      <trkpt lat="44.14165" lon="3.10922">
        <ele>454.20001220703</ele>
        <time>2020-10-03T09:01:28.000Z</time>
      </trkpt>
      <trkpt lat="44.14166" lon="3.10905">
        <ele>453</ele>
        <time>2020-10-03T09:01:29.000Z</time>
      </trkpt>
      <trkpt lat="44.14168" lon="3.10888">
        <ele>451.39999389648</ele>
        <time>2020-10-03T09:01:30.000Z</time>
      </trkpt>
      <trkpt lat="44.1417" lon="3.1087">
        <ele>449.60000610352</ele>
        <time>2020-10-03T09:01:31.000Z</time>
      </trkpt>
      <trkpt lat="44.14172" lon="3.10851">
        <ele>446</ele>
        <time>2020-10-03T09:01:32.000Z</time>
      </trkpt>
      <trkpt lat="44.14175" lon="3.10833">
        <ele>444.20001220703</ele>
        <time>2020-10-03T09:01:33.000Z</time>
      </trkpt>
      <trkpt lat="44.14178" lon="3.10816">
        <ele>442.20001220703</ele>
        <time>2020-10-03T09:01:34.000Z</time>
      </trkpt>
      <trkpt lat="44.14181" lon="3.10803">
        <ele>440</ele>
        <time>2020-10-03T09:01:35.000Z</time>
      </trkpt>
      <trkpt lat="44.14184" lon="3.10792">
        <ele>438</ele>
        <time>2020-10-03T09:01:36.000Z</time>
      </trkpt>
      <trkpt lat="44.14186" lon="3.10785">
        <ele>436.20001220703</ele>
        <time>2020-10-03T09:01:37.000Z</time>
      </trkpt>
      <trkpt lat="44.14188" lon="3.10779">
        <ele>434.39999389648</ele>
        <time>2020-10-03T09:01:38.000Z</time>
      </trkpt>
      <trkpt lat="44.1419" lon="3.10774">
        <ele>432.39999389648</ele>
        <time>2020-10-03T09:01:39.000Z</time>
      </trkpt>
      <trkpt lat="44.14192" lon="3.10769">
        <ele>430.20001220703</ele>
        <time>2020-10-03T09:01:40.000Z</time>
      </trkpt>
      <trkpt lat="44.14195" lon="3.10764">
        <ele>428.20001220703</ele>
        <time>2020-10-03T09:01:41.000Z</time>
      </trkpt>
      <trkpt lat="44.14197" lon="3.1076">
        <ele>426.39999389648</ele>
        <time>2020-10-03T09:01:42.000Z</time>
      </trkpt>
      <trkpt lat="44.142" lon="3.10754">
        <ele>424.39999389648</ele>
        <time>2020-10-03T09:01:43.000Z</time>
      </trkpt>
      <trkpt lat="44.14202" lon="3.10747">
        <ele>422.60000610352</ele>
        <time>2020-10-03T09:01:44.000Z</time>
      </trkpt>
      <trkpt lat="44.14205" lon="3.10739">
        <ele>421</ele>
        <time>2020-10-03T09:01:45.000Z</time>
      </trkpt>
      <trkpt lat="44.14209" lon="3.1073">
        <ele>419.79998779297</ele>
        <time>2020-10-03T09:01:46.000Z</time>
      </trkpt>
      <trkpt lat="44.14213" lon="3.10719">
        <ele>418.79998779297</ele>
        <time>2020-10-03T09:01:47.000Z</time>
      </trkpt>
      <trkpt lat="44.14217" lon="3.10708">
        <ele>418</ele>
        <time>2020-10-03T09:01:48.000Z</time>
      </trkpt>
      <trkpt lat="44.14224" lon="3.10684">
        <ele>416.60000610352</ele>
        <time>2020-10-03T09:01:50.000Z</time>
      </trkpt>
      <trkpt lat="44.14227" lon="3.10669">
        <ele>416</ele>
        <time>2020-10-03T09:01:51.000Z</time>
      </trkpt>
      <trkpt lat="44.14229" lon="3.10653">
        <ele>415.39999389648</ele>
        <time>2020-10-03T09:01:52.000Z</time>
      </trkpt>
      <trkpt lat="44.14231" lon="3.10636">
        <ele>414.60000610352</ele>
        <time>2020-10-03T09:01:53.000Z</time>
      </trkpt>
      <trkpt lat="44.14232" lon="3.10618">
        <ele>413.79998779297</ele>
        <time>2020-10-03T09:01:54.000Z</time>
      </trkpt>
      <trkpt lat="44.14231" lon="3.10599">
        <ele>412.60000610352</ele>
        <time>2020-10-03T09:01:55.000Z</time>
      </trkpt>
      <trkpt lat="44.14231" lon="3.10579">
        <ele>411.39999389648</ele>
        <time>2020-10-03T09:01:56.000Z</time>
      </trkpt>
      <trkpt lat="44.1423" lon="3.10558">
        <ele>410.20001220703</ele>
        <time>2020-10-03T09:01:57.000Z</time>
      </trkpt>
      <trkpt lat="44.14231" lon="3.10536">
        <ele>408.79998779297</ele>
        <time>2020-10-03T09:01:58.000Z</time>
      </trkpt>
      <trkpt lat="44.14232" lon="3.10515">
        <ele>407.60000610352</ele>
        <time>2020-10-03T09:01:59.000Z</time>
      </trkpt>
      <trkpt lat="44.14234" lon="3.10493">
        <ele>406</ele>
        <time>2020-10-03T09:02:00.000Z</time>
      </trkpt>
      <trkpt lat="44.14235" lon="3.10474">
        <ele>402.60000610352</ele>
        <time>2020-10-03T09:02:01.000Z</time>
      </trkpt>
      <trkpt lat="44.14236" lon="3.10455">
        <ele>400.60000610352</ele>
        <time>2020-10-03T09:02:02.000Z</time>
      </trkpt>
      <trkpt lat="44.14236" lon="3.10438">
        <ele>398.39999389648</ele>
        <time>2020-10-03T09:02:03.000Z</time>
      </trkpt>
      <trkpt lat="44.14235" lon="3.10422">
        <ele>396.20001220703</ele>
        <time>2020-10-03T09:02:04.000Z</time>
      </trkpt>
      <trkpt lat="44.14236" lon="3.10406">
        <ele>393.79998779297</ele>
        <time>2020-10-03T09:02:05.000Z</time>
      </trkpt>
      <trkpt lat="44.14237" lon="3.10391">
        <ele>391.60000610352</ele>
        <time>2020-10-03T09:02:06.000Z</time>
      </trkpt>
      <trkpt lat="44.14239" lon="3.10377">
        <ele>389.20001220703</ele>
        <time>2020-10-03T09:02:07.000Z</time>
      </trkpt>
      <trkpt lat="44.14241" lon="3.10366">
        <ele>387.20001220703</ele>
        <time>2020-10-03T09:02:08.000Z</time>
      </trkpt>
      <trkpt lat="44.14243" lon="3.10357">
        <ele>385.20001220703</ele>
        <time>2020-10-03T09:02:09.000Z</time>
      </trkpt>
      <trkpt lat="44.14245" lon="3.10349">
        <ele>383.39999389648</ele>
        <time>2020-10-03T09:02:10.000Z</time>
      </trkpt>
      <trkpt lat="44.14247" lon="3.10342">
        <ele>382</ele>
        <time>2020-10-03T09:02:11.000Z</time>
      </trkpt>
      <trkpt lat="44.14248" lon="3.10335">
        <ele>380.60000610352</ele>
        <time>2020-10-03T09:02:12.000Z</time>
      </trkpt>
      <trkpt lat="44.1425" lon="3.10328">
        <ele>379.20001220703</ele>
        <time>2020-10-03T09:02:13.000Z</time>
      </trkpt>
      <trkpt lat="44.14252" lon="3.10324">
        <ele>377.79998779297</ele>
        <time>2020-10-03T09:02:14.000Z</time>
      </trkpt>
      <trkpt lat="44.14253" lon="3.10319">
        <ele>376.39999389648</ele>
        <time>2020-10-03T09:02:15.000Z</time>
      </trkpt>
      <trkpt lat="44.14254" lon="3.10315">
        <ele>375</ele>
        <time>2020-10-03T09:02:16.000Z</time>
      </trkpt>
      <trkpt lat="44.14255" lon="3.10311">
        <ele>373.79998779297</ele>
        <time>2020-10-03T09:02:17.000Z</time>
      </trkpt>
      <trkpt lat="44.14256" lon="3.10306">
        <ele>372.39999389648</ele>
        <time>2020-10-03T09:02:18.000Z</time>
      </trkpt>
      <trkpt lat="44.14257" lon="3.103">
        <ele>371.39999389648</ele>
        <time>2020-10-03T09:02:19.000Z</time>
      </trkpt>
      <trkpt lat="44.14258" lon="3.10293">
        <ele>370.60000610352</ele>
        <time>2020-10-03T09:02:20.000Z</time>
      </trkpt>
      <trkpt lat="44.1426" lon="3.10284">
        <ele>369.79998779297</ele>
        <time>2020-10-03T09:02:21.000Z</time>
      </trkpt>
      <trkpt lat="44.14262" lon="3.10274">
        <ele>369</ele>
        <time>2020-10-03T09:02:22.000Z</time>
      </trkpt>
      <trkpt lat="44.14264" lon="3.10263">
        <ele>368.39999389648</ele>
        <time>2020-10-03T09:02:23.000Z</time>
      </trkpt>
      <trkpt lat="44.14267" lon="3.10253">
        <ele>368</ele>
        <time>2020-10-03T09:02:24.000Z</time>
      </trkpt>
      <trkpt lat="44.14268" lon="3.10244">
        <ele>367.60000610352</ele>
        <time>2020-10-03T09:02:25.000Z</time>
      </trkpt>
      <trkpt lat="44.1427" lon="3.10238">
        <ele>367.20001220703</ele>
        <time>2020-10-03T09:02:26.000Z</time>
      </trkpt>
      <trkpt lat="44.14273" lon="3.10232">
        <ele>366.60000610352</ele>
        <time>2020-10-03T09:02:28.000Z</time>
      </trkpt>
      <trkpt lat="44.14275" lon="3.10233">
        <ele>366</ele>
        <time>2020-10-03T09:02:29.000Z</time>
      </trkpt>
      <trkpt lat="44.14276" lon="3.10233">
        <ele>365</ele>
        <time>2020-10-03T09:02:30.000Z</time>
      </trkpt>
      <trkpt lat="44.14277" lon="3.10234">
        <ele>362.60000610352</ele>
        <time>2020-10-03T09:02:31.000Z</time>
      </trkpt>
      <trkpt lat="44.14277" lon="3.10235">
        <ele>361.39999389648</ele>
        <time>2020-10-03T09:02:32.000Z</time>
      </trkpt>
      <trkpt lat="44.14277" lon="3.10235">
        <ele>360.20001220703</ele>
        <time>2020-10-03T09:02:33.000Z</time>
      </trkpt>
      <trkpt lat="44.14278" lon="3.10236">
        <ele>359.20001220703</ele>
        <time>2020-10-03T09:02:34.000Z</time>
      </trkpt>
    </trkseg>
  </trk>
</gpx>